Wetterdaten: Donnerstag, 24.03.2022
Datum Zeit Temp. Aussen Temp. o. S. Temp +5cm Feuchte Auss Luftdruck Regen Sonnenschein Regendauer Solar Windben Empfang
24.03.2022 00:00 7,2 C 6,1 C 2,2 C 73 % 1029,8 hPa 0,0 l/m 0 min 0 min 0 W/m 0,0 km/h (0 Bft) 97,83 %
24.03.2022 00:02 7,1 C 6,1 C 2,2 C 73 % 1029,8 hPa 0,0 l/m 0 min 0 min 0 W/m 0,0 km/h (0 Bft) 97,44 %
24.03.2022 00:04 7,1 C 6,1 C 2,2 C 73 % 1029,8 hPa 0,0 l/m 0 min 0 min 0 W/m 0,0 km/h (0 Bft) 97,87 %
24.03.2022 00:08 7,1 C 6,1 C 2,2 C 73 % 1029,8 hPa 0,0 l/m 0 min 0 min 0 W/m 0,0 km/h (0 Bft) 97,87 %
24.03.2022 00:10 7,1 C 6,1 C 2,2 C 73 % 1029,8 hPa 0,0 l/m 0 min 0 min 0 W/m 0,0 km/h (0 Bft) 97,87 %
24.03.2022 00:12 7,1 C 5,6 C 2,2 C 73 % 1029,8 hPa 0,0 l/m 0 min 0 min 0 W/m 0,0 km/h (0 Bft) 95,65 %
24.03.2022 00:14 7,0 C 5,6 C 1,7 C 73 % 1029,8 hPa 0,0 l/m 0 min 0 min 0 W/m 0,0 km/h (0 Bft) 93,62 %
24.03.2022 00:16 7,0 C 5,6 C 1,7 C 73 % 1029,8 hPa 0,0 l/m 0 min 0 min 0 W/m 0,0 km/h (0 Bft) 95,74 %
24.03.2022 00:18 6,9 C 5,6 C 1,7 C 73 % 1029,7 hPa 0,0 l/m 0 min 0 min 0 W/m 0,0 km/h (0 Bft) 93,62 %
24.03.2022 00:20 6,9 C 5,6 C 1,7 C 73 % 1029,7 hPa 0,0 l/m 0 min 0 min 0 W/m 0,0 km/h (0 Bft) 91,49 %
24.03.2022 00:22 6,9 C 5,6 C 1,7 C 73 % 1029,8 hPa 0,0 l/m 0 min 0 min 0 W/m 0,0 km/h (0 Bft) 95,74 %
24.03.2022 00:24 6,9 C 5,6 C 1,7 C 73 % 1029,7 hPa 0,0 l/m 0 min 0 min 0 W/m 0,0 km/h (0 Bft) 95,65 %
24.03.2022 00:26 6,8 C 5,6 C 1,7 C 73 % 1029,7 hPa 0,0 l/m 0 min 0 min 0 W/m 0,0 km/h (0 Bft) 95,74 %
24.03.2022 00:28 6,8 C 5,6 C 1,7 C 73 % 1029,7 hPa 0,0 l/m 0 min 0 min 0 W/m 0,0 km/h (0 Bft) 95,74 %
24.03.2022 00:30 6,8 C 5,6 C 1,7 C 73 % 1029,7 hPa 0,0 l/m 0 min 0 min 0 W/m 0,0 km/h (0 Bft) 95,74 %
24.03.2022 00:32 6,8 C 5,6 C 1,7 C 73 % 1029,7 hPa 0,0 l/m 0 min 0 min 0 W/m 0,0 km/h (0 Bft) 93,62 %
24.03.2022 00:34 6,7 C 5,6 C 1,7 C 73 % 1029,7 hPa 0,0 l/m 0 min 0 min 0 W/m 0,0 km/h (0 Bft) 93,48 %
24.03.2022 00:36 6,7 C 5,6 C 1,7 C 73 % 1029,7 hPa 0,0 l/m 0 min 0 min 0 W/m 0,0 km/h (0 Bft) 93,62 %
24.03.2022 00:38 6,7 C 5,6 C 1,7 C 73 % 1029,7 hPa 0,0 l/m 0 min 0 min 0 W/m 0,0 km/h (0 Bft) 97,87 %
24.03.2022 00:40 6,6 C 5,6 C 1,7 C 73 % 1029,7 hPa 0,0 l/m 0 min 0 min 0 W/m 0,0 km/h (0 Bft) 97,87 %
24.03.2022 00:42 6,6 C 5,6 C 1,7 C 73 % 1029,7 hPa 0,0 l/m 0 min 0 min 0 W/m 0,0 km/h (0 Bft) 97,87 %
24.03.2022 00:44 6,6 C 5,6 C 1,7 C 73 % 1029,6 hPa 0,0 l/m 0 min 0 min 0 W/m 0,0 km/h (0 Bft) 97,87 %
24.03.2022 00:46 6,5 C 5,6 C 1,7 C 73 % 1029,7 hPa 0,0 l/m 0 min 0 min 0 W/m 0,0 km/h (0 Bft) 95,65 %
24.03.2022 00:48 6,5 C 5,0 C 1,7 C 74 % 1029,7 hPa 0,0 l/m 0 min 0 min 0 W/m 0,0 km/h (0 Bft) 97,87 %
24.03.2022 00:50 6,5 C 5,0 C 1,1 C 74 % 1029,6 hPa 0,0 l/m 0 min 0 min 0 W/m 0,0 km/h (0 Bft) 97,87 %
24.03.2022 00:52 6,4 C 5,0 C 1,1 C 74 % 1029,6 hPa 0,0 l/m 0 min 0 min 0 W/m 0,0 km/h (0 Bft) 95,74 %
24.03.2022 00:54 6,4 C 5,0 C 1,1 C 74 % 1029,6 hPa 0,0 l/m 0 min 0 min 0 W/m 0,0 km/h (0 Bft) 93,62 %
24.03.2022 00:56 6,4 C 5,0 C 1,1 C 74 % 1029,6 hPa 0,0 l/m 0 min 0 min 0 W/m 0,0 km/h (0 Bft) 97,87 %
24.03.2022 00:58 6,3 C 5,0 C 1,1 C 74 % 1029,6 hPa 0,0 l/m 0 min 0 min 0 W/m 0,0 km/h (0 Bft) 95,65 %
24.03.2022 01:00 6,3 C 5,0 C 1,1 C 74 % 1029,6 hPa 0,0 l/m 0 min 0 min 0 W/m 0,0 km/h (0 Bft) 95,74 %
24.03.2022 01:02 6,3 C 5,0 C 1,1 C 74 % 1029,6 hPa 0,0 l/m 0 min 0 min 0 W/m 0,0 km/h (0 Bft) 95,74 %
24.03.2022 01:04 6,3 C 5,0 C 1,1 C 74 % 1029,6 hPa 0,0 l/m 0 min 0 min 0 W/m 0,0 km/h (0 Bft) 93,88 %
24.03.2022 01:06 6,3 C 5,0 C 1,1 C 74 % 1029,7 hPa 0,0 l/m 0 min 0 min 0 W/m 12,9 km/h (3 Bft) 95,74 %
24.03.2022 01:08 6,2 C 5,0 C 1,1 C 75 % 1029,7 hPa 0,0 l/m 0 min 0 min 0 W/m 6,4 km/h (2 Bft) 93,62 %
24.03.2022 01:10 6,1 C 5,0 C 1,1 C 75 % 1029,7 hPa 0,0 l/m 0 min 0 min 0 W/m 3,2 km/h (1 Bft) 93,48 %
24.03.2022 01:12 6,1 C 5,0 C 1,1 C 76 % 1029,6 hPa 0,0 l/m 0 min 0 min 0 W/m 3,2 km/h (1 Bft) 95,74 %
24.03.2022 01:14 6,1 C 5,0 C 1,7 C 76 % 1029,6 hPa 0,0 l/m 0 min 0 min 0 W/m 0,0 km/h (0 Bft) 97,87 %
24.03.2022 01:16 6,1 C 5,0 C 1,7 C 76 % 1029,6 hPa 0,0 l/m 0 min 0 min 0 W/m 0,0 km/h (0 Bft) 97,87 %
24.03.2022 01:18 6,1 C 5,0 C 1,1 C 76 % 1029,5 hPa 0,0 l/m 0 min 0 min 0 W/m 0,0 km/h (0 Bft) 97,87 %
24.03.2022 01:20 6,0 C 5,0 C 1,1 C 76 % 1029,5 hPa 0,0 l/m 0 min 0 min 0 W/m 0,0 km/h (0 Bft) 97,87 %
24.03.2022 01:22 6,0 C 4,4 C 1,1 C 76 % 1029,5 hPa 0,0 l/m 0 min 0 min 0 W/m 0,0 km/h (0 Bft) 97,83 %
24.03.2022 01:24 5,9 C 4,4 C 1,1 C 76 % 1029,5 hPa 0,0 l/m 0 min 0 min 0 W/m 0,0 km/h (0 Bft) 97,87 %
24.03.2022 01:26 5,9 C 4,4 C 1,1 C 76 % 1029,5 hPa 0,0 l/m 0 min 0 min 0 W/m 0,0 km/h (0 Bft) 97,87 %
24.03.2022 01:28 5,9 C 4,4 C 1,1 C 76 % 1029,5 hPa 0,0 l/m 0 min 0 min 0 W/m 3,2 km/h (1 Bft) 95,74 %
24.03.2022 01:30 5,9 C 4,4 C 1,1 C 76 % 1029,5 hPa 0,0 l/m 0 min 0 min 0 W/m 3,2 km/h (1 Bft) 97,87 %
24.03.2022 01:32 5,8 C 4,4 C 1,1 C 76 % 1029,4 hPa 0,0 l/m 0 min 0 min 0 W/m 3,2 km/h (1 Bft) 100,00 %
24.03.2022 01:34 5,8 C 4,4 C 1,1 C 76 % 1029,5 hPa 0,0 l/m 0 min 0 min 0 W/m 0,0 km/h (0 Bft) 100,00 %
24.03.2022 01:36 5,8 C 4,4 C 1,1 C 77 % 1029,5 hPa 0,0 l/m 0 min 0 min 0 W/m 0,0 km/h (0 Bft) 100,00 %
24.03.2022 01:38 5,8 C 5,0 C 1,1 C 77 % 1029,5 hPa 0,0 l/m 0 min 0 min 0 W/m 0,0 km/h (0 Bft) 100,00 %
24.03.2022 01:40 5,8 C 4,4 C 1,1 C 77 % 1029,4 hPa 0,0 l/m 0 min 0 min 0 W/m 0,0 km/h (0 Bft) 100,00 %
24.03.2022 01:42 5,7 C 4,4 C 1,1 C 77 % 1029,4 hPa 0,0 l/m 0 min 0 min 0 W/m 0,0 km/h (0 Bft) 95,74 %
24.03.2022 01:44 5,7 C 4,4 C 1,1 C 77 % 1029,4 hPa 0,0 l/m 0 min 0 min 0 W/m 0,0 km/h (0 Bft) 97,87 %
24.03.2022 01:46 5,7 C 4,4 C 1,1 C 77 % 1029,4 hPa 0,0 l/m 0 min 0 min 0 W/m 0,0 km/h (0 Bft) 97,83 %
24.03.2022 01:48 5,7 C 4,4 C 1,1 C 76 % 1029,4 hPa 0,0 l/m 0 min 0 min 0 W/m 0,0 km/h (0 Bft) 97,87 %
24.03.2022 01:50 5,6 C 4,4 C 1,1 C 77 % 1029,4 hPa 0,0 l/m 0 min 0 min 0 W/m 0,0 km/h (0 Bft) 97,87 %
24.03.2022 01:52 5,6 C 4,4 C 1,1 C 77 % 1029,4 hPa 0,0 l/m 0 min 0 min 0 W/m 0,0 km/h (0 Bft) 97,87 %
24.03.2022 01:54 5,6 C 4,4 C 0,6 C 77 % 1029,5 hPa 0,0 l/m 0 min 0 min 0 W/m 0,0 km/h (0 Bft) 97,87 %
24.03.2022 01:56 5,5 C 4,4 C 0,6 C 77 % 1029,4 hPa 0,0 l/m 0 min 0 min 0 W/m 0,0 km/h (0 Bft) 97,87 %
24.03.2022 01:58 5,5 C 4,4 C 0,6 C 77 % 1029,4 hPa 0,0 l/m 0 min 0 min 0 W/m 0,0 km/h (0 Bft) 97,83 %
24.03.2022 02:00 5,4 C 4,4 C 0,6 C 77 % 1029,4 hPa 0,0 l/m 0 min 0 min 0 W/m 6,4 km/h (2 Bft) 97,87 %
24.03.2022 02:02 5,4 C 4,4 C 0,6 C 77 % 1029,4 hPa 0,0 l/m 0 min 0 min 0 W/m 3,2 km/h (1 Bft) 95,74 %
24.03.2022 02:04 5,4 C 4,4 C 0,6 C 77 % 1029,4 hPa 0,0 l/m 0 min 0 min 0 W/m 3,2 km/h (1 Bft) 97,87 %
24.03.2022 02:06 5,4 C 4,4 C 1,1 C 77 % 1029,3 hPa 0,0 l/m 0 min 0 min 0 W/m 3,2 km/h (1 Bft) 97,87 %
24.03.2022 02:08 5,3 C 4,4 C 1,1 C 77 % 1029,4 hPa 0,0 l/m 0 min 0 min 0 W/m 0,0 km/h (0 Bft) 97,87 %
24.03.2022 02:10 5,3 C 4,4 C 1,1 C 77 % 1029,4 hPa 0,0 l/m 0 min 0 min 0 W/m 3,2 km/h (1 Bft) 100,00 %
24.03.2022 02:12 5,3 C 4,4 C 1,1 C 77 % 1029,3 hPa 0,0 l/m 0 min 0 min 0 W/m 3,2 km/h (1 Bft) 100,00 %
24.03.2022 02:14 5,3 C 4,4 C 1,1 C 77 % 1029,3 hPa 0,0 l/m 0 min 0 min 0 W/m 3,2 km/h (1 Bft) 97,87 %
24.03.2022 02:16 5,3 C 4,4 C 1,1 C 77 % 1029,3 hPa 0,0 l/m 0 min 0 min 0 W/m 0,0 km/h (0 Bft) 97,87 %
24.03.2022 02:18 5,3 C 4,4 C 1,1 C 77 % 1029,3 hPa 0,0 l/m 0 min 0 min 0 W/m 3,2 km/h (1 Bft) 100,00 %
24.03.2022 02:20 5,3 C 4,4 C 1,1 C 77 % 1029,3 hPa 0,0 l/m 0 min 0 min 0 W/m 0,0 km/h (0 Bft) 100,00 %
24.03.2022 02:22 5,3 C 4,4 C 1,1 C 77 % 1029,3 hPa 0,0 l/m 0 min 0 min 0 W/m 0,0 km/h (0 Bft) 100,00 %
24.03.2022 02:24 5,3 C 4,4 C 1,1 C 77 % 1029,2 hPa 0,0 l/m 0 min 0 min 0 W/m 0,0 km/h (0 Bft) 100,00 %
24.03.2022 02:26 5,3 C 4,4 C 1,1 C 77 % 1029,2 hPa 0,0 l/m 0 min 0 min 0 W/m 0,0 km/h (0 Bft) 100,00 %
24.03.2022 02:28 5,3 C 4,4 C 1,1 C 77 % 1029,2 hPa 0,0 l/m 0 min 0 min 0 W/m 0,0 km/h (0 Bft) 97,87 %
24.03.2022 02:30 5,3 C 4,4 C 1,1 C 77 % 1029,2 hPa 0,0 l/m 0 min 0 min 0 W/m 0,0 km/h (0 Bft) 95,74 %
24.03.2022 02:32 5,3 C 4,4 C 1,1 C 77 % 1029,2 hPa 0,0 l/m 0 min 0 min 0 W/m 0,0 km/h (0 Bft) 100,00 %
24.03.2022 02:34 5,3 C 4,4 C 1,1 C 77 % 1029,2 hPa 0,0 l/m 0 min 0 min 0 W/m 0,0 km/h (0 Bft) 97,87 %
24.03.2022 02:36 5,3 C 4,4 C 0,6 C 77 % 1029,2 hPa 0,0 l/m 0 min 0 min 0 W/m 0,0 km/h (0 Bft) 100,00 %
24.03.2022 02:38 5,3 C 4,4 C 0,6 C 77 % 1029,2 hPa 0,0 l/m 0 min 0 min 0 W/m 0,0 km/h (0 Bft) 100,00 %
24.03.2022 02:40 5,3 C 4,4 C 0,6 C 77 % 1029,2 hPa 0,0 l/m 0 min 0 min 0 W/m 3,2 km/h (1 Bft) 93,62 %
24.03.2022 02:42 5,3 C 4,4 C 0,6 C 77 % 1029,2 hPa 0,0 l/m 0 min 0 min 0 W/m 3,2 km/h (1 Bft) 95,74 %
24.03.2022 02:44 5,3 C 3,9 C 0,6 C 77 % 1029,2 hPa 0,0 l/m 0 min 0 min 0 W/m 0,0 km/h (0 Bft) 97,83 %
24.03.2022 02:46 5,3 C 3,9 C 0,6 C 77 % 1029,2 hPa 0,0 l/m 0 min 0 min 0 W/m 0,0 km/h (0 Bft) 95,74 %
24.03.2022 02:48 5,3 C 3,9 C 0,6 C 77 % 1029,2 hPa 0,0 l/m 0 min 0 min 0 W/m 0,0 km/h (0 Bft) 97,87 %
24.03.2022 02:50 5,3 C 3,9 C 0,6 C 77 % 1029,2 hPa 0,0 l/m 0 min 0 min 0 W/m 0,0 km/h (0 Bft) 97,92 %
24.03.2022 02:52 5,3 C 3,9 C 0,6 C 77 % 1029,2 hPa 0,0 l/m 0 min 0 min 0 W/m 0,0 km/h (0 Bft) 97,14 %
24.03.2022 02:54 5,2 C 3,9 C 0,6 C 77 % 1029,2 hPa 0,0 l/m 0 min 0 min 0 W/m 0,0 km/h (0 Bft) 97,87 %
24.03.2022 02:56 5,2 C 3,9 C 0,6 C 77 % 1029,1 hPa 0,0 l/m 0 min 0 min 0 W/m 0,0 km/h (0 Bft) 97,87 %
24.03.2022 02:58 5,2 C 3,9 C 0,6 C 77 % 1029,1 hPa 0,0 l/m 0 min 0 min 0 W/m 0,0 km/h (0 Bft) 97,87 %
24.03.2022 03:00 5,2 C 3,9 C 0,6 C 77 % 1029,1 hPa 0,0 l/m 0 min 0 min 0 W/m 0,0 km/h (0 Bft) 97,83 %
24.03.2022 03:02 5,2 C 3,9 C 0,6 C 77 % 1029,1 hPa 0,0 l/m 0 min 0 min 0 W/m 0,0 km/h (0 Bft) 97,87 %
24.03.2022 03:04 5,2 C 3,9 C 0,0 C 78 % 1029,1 hPa 0,0 l/m 0 min 0 min 0 W/m 0,0 km/h (0 Bft) 97,87 %
24.03.2022 03:06 5,1 C 3,9 C 0,0 C 77 % 1029,1 hPa 0,0 l/m 0 min 0 min 0 W/m 0,0 km/h (0 Bft) 97,87 %
24.03.2022 03:08 5,1 C 3,3 C 0,0 C 78 % 1029,1 hPa 0,0 l/m 0 min 0 min 0 W/m 0,0 km/h (0 Bft) 98,28 %
24.03.2022 03:10 5,1 C 3,3 C 0,0 C 78 % 1029,1 hPa 0,0 l/m 0 min 0 min 0 W/m 0,0 km/h (0 Bft) 100,00 %
24.03.2022 03:12 5,1 C 3,3 C 0,0 C 78 % 1029,1 hPa 0,0 l/m 0 min 0 min 0 W/m 0,0 km/h (0 Bft) 100,00 %
24.03.2022 03:14 5,1 C 3,3 C 0,0 C 78 % 1029,1 hPa 0,0 l/m 0 min 0 min 0 W/m 0,0 km/h (0 Bft) 100,00 %
24.03.2022 03:16 5,0 C 3,3 C 0,0 C 78 % 1029,1 hPa 0,0 l/m 0 min 0 min 0 W/m 0,0 km/h (0 Bft) 97,87 %
24.03.2022 03:18 5,0 C 3,3 C 0,0 C 78 % 1029,1 hPa 0,0 l/m 0 min 0 min 0 W/m 0,0 km/h (0 Bft) 97,87 %
24.03.2022 03:20 4,9 C 3,3 C 0,0 C 78 % 1029,0 hPa 0,0 l/m 0 min 0 min 0 W/m 0,0 km/h (0 Bft) 97,87 %
24.03.2022 03:22 4,9 C 3,3 C 0,0 C 78 % 1029,1 hPa 0,0 l/m 0 min 0 min 0 W/m 0,0 km/h (0 Bft) 97,87 %
24.03.2022 03:24 4,9 C 3,3 C 0,0 C 78 % 1029,1 hPa 0,0 l/m 0 min 0 min 0 W/m 0,0 km/h (0 Bft) 97,83 %
24.03.2022 03:26 4,8 C 3,3 C 0,0 C 78 % 1029,0 hPa 0,0 l/m 0 min 0 min 0 W/m 0,0 km/h (0 Bft) 97,87 %
24.03.2022 03:28 4,8 C 3,3 C 0,0 C 78 % 1029,0 hPa 0,0 l/m 0 min 0 min 0 W/m 0,0 km/h (0 Bft) 97,87 %
24.03.2022 03:30 4,8 C 3,3 C 0,0 C 78 % 1029,0 hPa 0,0 l/m 0 min 0 min 0 W/m 0,0 km/h (0 Bft) 97,87 %
24.03.2022 03:32 4,8 C 3,3 C 0,0 C 78 % 1029,0 hPa 0,0 l/m 0 min 0 min 0 W/m 0,0 km/h (0 Bft) 97,87 %
24.03.2022 03:34 4,7 C 3,3 C 0,0 C 78 % 1029,1 hPa 0,0 l/m 0 min 0 min 0 W/m 0,0 km/h (0 Bft) 97,83 %
24.03.2022 03:36 4,7 C 2,8 C 0,0 C 79 % 1029,1 hPa 0,0 l/m 0 min 0 min 0 W/m 0,0 km/h (0 Bft) 97,87 %
24.03.2022 03:38 4,7 C 2,8 C 0,0 C 79 % 1029,1 hPa 0,0 l/m 0 min 0 min 0 W/m 0,0 km/h (0 Bft) 96,61 %
24.03.2022 03:40 4,7 C 2,8 C 0,0 C 79 % 1029,0 hPa 0,0 l/m 0 min 0 min 0 W/m 0,0 km/h (0 Bft) 100,00 %
24.03.2022 03:42 4,6 C 2,8 C -0,6 C 79 % 1029,1 hPa 0,0 l/m 0 min 0 min 0 W/m 0,0 km/h (0 Bft) 97,87 %
24.03.2022 03:44 4,6 C 2,8 C -0,6 C 80 % 1029,1 hPa 0,0 l/m 0 min 0 min 0 W/m 0,0 km/h (0 Bft) 100,00 %
24.03.2022 03:46 4,6 C 2,8 C -0,6 C 80 % 1029,1 hPa 0,0 l/m 0 min 0 min 0 W/m 0,0 km/h (0 Bft) 100,00 %
24.03.2022 03:48 4,5 C 2,8 C -0,6 C 80 % 1029,1 hPa 0,0 l/m 0 min 0 min 0 W/m 0,0 km/h (0 Bft) 100,00 %
24.03.2022 03:50 4,5 C 2,8 C -0,6 C 80 % 1029,1 hPa 0,0 l/m 0 min 0 min 0 W/m 0,0 km/h (0 Bft) 77,14 %
24.03.2022 03:52 4,4 C 2,8 C -0,6 C 80 % 1029,1 hPa 0,0 l/m 0 min 0 min 0 W/m 0,0 km/h (0 Bft) 69,23 %
24.03.2022 03:54 4,4 C 2,8 C -0,6 C 80 % 1029,1 hPa 0,0 l/m 0 min 0 min 0 W/m 0,0 km/h (0 Bft) 100,00 %
24.03.2022 03:56 4,3 C 2,8 C -0,6 C 80 % 1029,0 hPa 0,0 l/m 0 min 0 min 0 W/m 0,0 km/h (0 Bft) 100,00 %
24.03.2022 03:58 4,3 C 2,8 C -0,6 C 81 % 1029,0 hPa 0,0 l/m 0 min 0 min 0 W/m 0,0 km/h (0 Bft) 97,83 %
24.03.2022 04:00 4,3 C 2,8 C -0,6 C 81 % 1029,1 hPa 0,0 l/m 0 min 0 min 0 W/m 0,0 km/h (0 Bft) 100,00 %
24.03.2022 04:05 4,2 C 3,3 C -0,6 C 81 % 1029,0 hPa 0,0 l/m 0 min 0 min 0 W/m 3,2 km/h (1 Bft) 98,70 %
24.03.2022 04:06 4,2 C 3,3 C -0,6 C 81 % 1029,0 hPa 0,0 l/m 0 min 0 min 0 W/m 0,0 km/h (0 Bft) 95,65 %
24.03.2022 04:08 4,1 C 3,3 C 0,0 C 81 % 1029,0 hPa 0,0 l/m 0 min 0 min 0 W/m 0,0 km/h (0 Bft) 97,87 %
24.03.2022 04:10 4,1 C 2,8 C 0,0 C 81 % 1029,0 hPa 0,0 l/m 0 min 0 min 0 W/m 0,0 km/h (0 Bft) 97,14 %
24.03.2022 04:12 4,1 C 2,8 C 0,0 C 81 % 1029,0 hPa 0,0 l/m 0 min 0 min 0 W/m 0,0 km/h (0 Bft) 97,87 %
24.03.2022 04:14 4,1 C 2,8 C 0,0 C 82 % 1029,1 hPa 0,0 l/m 0 min 0 min 0 W/m 0,0 km/h (0 Bft) 100,00 %
24.03.2022 04:16 4,0 C 2,8 C -0,6 C 82 % 1029,1 hPa 0,0 l/m 0 min 0 min 0 W/m 0,0 km/h (0 Bft) 97,87 %
24.03.2022 04:18 4,0 C 2,8 C -0,6 C 82 % 1029,1 hPa 0,0 l/m 0 min 0 min 0 W/m 0,0 km/h (0 Bft) 97,87 %
24.03.2022 04:20 3,9 C 2,8 C -0,6 C 82 % 1029,1 hPa 0,0 l/m 0 min 0 min 0 W/m 0,0 km/h (0 Bft) 97,87 %
24.03.2022 04:22 3,9 C 2,8 C -0,6 C 82 % 1029,1 hPa 0,0 l/m 0 min 0 min 0 W/m 0,0 km/h (0 Bft) 97,83 %
24.03.2022 04:24 3,9 C 2,8 C -0,6 C 82 % 1029,1 hPa 0,0 l/m 0 min 0 min 0 W/m 0,0 km/h (0 Bft) 97,87 %
24.03.2022 04:26 3,9 C 2,2 C -0,6 C 82 % 1029,1 hPa 0,0 l/m 0 min 0 min 0 W/m 0,0 km/h (0 Bft) 95,74 %
24.03.2022 04:28 3,8 C 2,2 C -0,6 C 82 % 1029,1 hPa 0,0 l/m 0 min 0 min 0 W/m 0,0 km/h (0 Bft) 95,74 %
24.03.2022 04:30 3,8 C 2,2 C -0,6 C 82 % 1029,1 hPa 0,0 l/m 0 min 0 min 0 W/m 0,0 km/h (0 Bft) 93,62 %
24.03.2022 04:32 3,8 C 2,2 C -0,6 C 82 % 1029,1 hPa 0,0 l/m 0 min 0 min 0 W/m 0,0 km/h (0 Bft) 93,62 %
24.03.2022 04:34 3,8 C 2,2 C -0,6 C 82 % 1029,1 hPa 0,0 l/m 0 min 0 min 0 W/m 0,0 km/h (0 Bft) 96,15 %
24.03.2022 04:36 3,7 C 2,2 C -0,6 C 82 % 1029,1 hPa 0,0 l/m 0 min 0 min 0 W/m 0,0 km/h (0 Bft) 95,74 %
24.03.2022 04:38 3,7 C 2,2 C -0,6 C 83 % 1029,1 hPa 0,0 l/m 0 min 0 min 0 W/m 0,0 km/h (0 Bft) 95,74 %
24.03.2022 04:40 3,7 C 2,2 C -0,6 C 82 % 1029,1 hPa 0,0 l/m 0 min 0 min 0 W/m 0,0 km/h (0 Bft) 93,62 %
24.03.2022 04:42 3,7 C 2,2 C -0,6 C 82 % 1029,1 hPa 0,0 l/m 0 min 0 min 0 W/m 0,0 km/h (0 Bft) 97,87 %
24.03.2022 04:44 3,6 C 2,2 C -0,6 C 83 % 1029,1 hPa 0,0 l/m 0 min 0 min 0 W/m 0,0 km/h (0 Bft) 97,83 %
24.03.2022 04:46 3,6 C 2,2 C -0,6 C 83 % 1029,1 hPa 0,0 l/m 0 min 0 min 0 W/m 0,0 km/h (0 Bft) 95,12 %
24.03.2022 04:48 3,6 C 2,2 C -0,6 C 83 % 1029,1 hPa 0,0 l/m 0 min 0 min 0 W/m 0,0 km/h (0 Bft) 94,34 %
24.03.2022 04:50 3,6 C 2,2 C -0,6 C 83 % 1029,1 hPa 0,0 l/m 0 min 0 min 0 W/m 0,0 km/h (0 Bft) 97,87 %
24.03.2022 04:52 3,6 C 2,2 C -0,6 C 83 % 1029,1 hPa 0,0 l/m 0 min 0 min 0 W/m 0,0 km/h (0 Bft) 95,74 %
24.03.2022 04:54 3,6 C 2,2 C -0,6 C 83 % 1029,2 hPa 0,0 l/m 0 min 0 min 0 W/m 0,0 km/h (0 Bft) 95,74 %
24.03.2022 04:56 3,5 C 2,2 C -1,1 C 83 % 1029,2 hPa 0,0 l/m 0 min 0 min 0 W/m 0,0 km/h (0 Bft) 97,83 %
24.03.2022 04:58 3,4 C 2,2 C -1,1 C 83 % 1029,1 hPa 0,0 l/m 0 min 0 min 0 W/m 0,0 km/h (0 Bft) 93,62 %
24.03.2022 05:00 3,4 C 2,2 C -1,1 C 83 % 1029,1 hPa 0,0 l/m 0 min 0 min 0 W/m 0,0 km/h (0 Bft) 95,12 %
24.03.2022 05:02 3,4 C 2,2 C -1,1 C 83 % 1029,2 hPa 0,0 l/m 0 min 0 min 0 W/m 0,0 km/h (0 Bft) 96,30 %
24.03.2022 05:04 3,4 C 2,2 C -1,1 C 83 % 1029,2 hPa 0,0 l/m 0 min 0 min 0 W/m 0,0 km/h (0 Bft) 95,74 %
24.03.2022 05:06 3,4 C 2,2 C -1,1 C 83 % 1029,2 hPa 0,0 l/m 0 min 0 min 0 W/m 0,0 km/h (0 Bft) 95,65 %
24.03.2022 05:08 3,3 C 2,2 C -0,6 C 84 % 1029,1 hPa 0,0 l/m 0 min 0 min 0 W/m 0,0 km/h (0 Bft) 93,62 %
24.03.2022 05:10 3,3 C 2,2 C -1,1 C 84 % 1029,1 hPa 0,0 l/m 0 min 0 min 0 W/m 0,0 km/h (0 Bft) 95,74 %
24.03.2022 05:12 3,3 C 2,2 C -1,1 C 84 % 1029,2 hPa 0,0 l/m 0 min 0 min 0 W/m 0,0 km/h (0 Bft) 95,74 %
24.03.2022 05:14 3,3 C 2,8 C -0,6 C 84 % 1029,1 hPa 0,0 l/m 0 min 0 min 0 W/m 3,2 km/h (1 Bft) 95,74 %
24.03.2022 05:16 3,3 C 2,2 C -0,6 C 84 % 1029,2 hPa 0,0 l/m 0 min 0 min 0 W/m 3,2 km/h (1 Bft) 100,00 %
24.03.2022 05:18 3,3 C 2,2 C -0,6 C 84 % 1029,2 hPa 0,0 l/m 0 min 0 min 0 W/m 3,2 km/h (1 Bft) 97,87 %
24.03.2022 05:20 3,3 C 2,2 C -0,6 C 84 % 1029,1 hPa 0,0 l/m 0 min 0 min 0 W/m 0,0 km/h (0 Bft) 97,83 %
24.03.2022 05:22 3,3 C 2,2 C -0,6 C 84 % 1029,1 hPa 0,0 l/m 0 min 0 min 0 W/m 3,2 km/h (1 Bft) 100,00 %
24.03.2022 05:24 3,3 C 2,2 C -0,6 C 84 % 1029,1 hPa 0,0 l/m 0 min 0 min 0 W/m 0,0 km/h (0 Bft) 95,74 %
24.03.2022 05:26 3,3 C 2,2 C -0,6 C 84 % 1029,1 hPa 0,0 l/m 0 min 0 min 0 W/m 0,0 km/h (0 Bft) 100,00 %
24.03.2022 05:28 3,2 C 2,2 C -1,1 C 84 % 1029,1 hPa 0,0 l/m 0 min 0 min 0 W/m 0,0 km/h (0 Bft) 97,87 %
24.03.2022 05:30 3,2 C 2,2 C -1,1 C 85 % 1029,1 hPa 0,0 l/m 0 min 0 min 0 W/m 0,0 km/h (0 Bft) 97,83 %
24.03.2022 05:32 3,2 C 2,2 C -1,1 C 85 % 1029,2 hPa 0,0 l/m 0 min 0 min 0 W/m 3,2 km/h (1 Bft) 95,74 %
24.03.2022 05:34 3,2 C 2,2 C -1,1 C 85 % 1029,2 hPa 0,0 l/m 0 min 0 min 0 W/m 0,0 km/h (0 Bft) 97,87 %
24.03.2022 05:36 3,2 C 2,2 C -1,1 C 85 % 1029,2 hPa 0,0 l/m 0 min 0 min 0 W/m 0,0 km/h (0 Bft) 97,87 %
24.03.2022 05:38 3,2 C 2,2 C -1,1 C 85 % 1029,2 hPa 0,0 l/m 0 min 0 min 0 W/m 0,0 km/h (0 Bft) 97,87 %
24.03.2022 05:40 3,1 C 2,2 C -1,1 C 85 % 1029,2 hPa 0,0 l/m 0 min 0 min 0 W/m 0,0 km/h (0 Bft) 95,74 %
24.03.2022 05:42 3,1 C 2,2 C -1,1 C 85 % 1029,2 hPa 0,0 l/m 0 min 0 min 0 W/m 0,0 km/h (0 Bft) 97,83 %
24.03.2022 05:44 3,1 C 2,2 C -1,1 C 85 % 1029,2 hPa 0,0 l/m 0 min 0 min 0 W/m 0,0 km/h (0 Bft) 97,87 %
24.03.2022 05:46 3,1 C 1,7 C -1,1 C 85 % 1029,2 hPa 0,0 l/m 0 min 0 min 0 W/m 0,0 km/h (0 Bft) 97,87 %
24.03.2022 05:48 3,1 C 1,7 C -1,1 C 85 % 1029,2 hPa 0,0 l/m 0 min 0 min 0 W/m 0,0 km/h (0 Bft) 95,74 %
24.03.2022 05:50 3,1 C 1,7 C -1,1 C 85 % 1029,2 hPa 0,0 l/m 0 min 0 min 0 W/m 0,0 km/h (0 Bft) 97,87 %
24.03.2022 05:52 3,0 C 1,7 C -1,1 C 85 % 1029,3 hPa 0,0 l/m 0 min 0 min 0 W/m 0,0 km/h (0 Bft) 97,87 %
24.03.2022 05:54 3,0 C 1,7 C -1,1 C 85 % 1029,3 hPa 0,0 l/m 0 min 0 min 0 W/m 3,2 km/h (1 Bft) 97,83 %
24.03.2022 05:56 2,9 C 1,7 C -1,1 C 85 % 1029,2 hPa 0,0 l/m 0 min 0 min 0 W/m 0,0 km/h (0 Bft) 97,87 %
24.03.2022 05:58 2,9 C 2,2 C -1,1 C 85 % 1029,3 hPa 0,0 l/m 0 min 0 min 0 W/m 0,0 km/h (0 Bft) 95,74 %
24.03.2022 06:00 2,9 C 1,7 C -1,1 C 85 % 1029,3 hPa 0,0 l/m 0 min 0 min 0 W/m 0,0 km/h (0 Bft) 97,87 %
24.03.2022 06:02 2,9 C 1,7 C -1,1 C 85 % 1029,3 hPa 0,0 l/m 0 min 0 min 0 W/m 0,0 km/h (0 Bft) 97,87 %
24.03.2022 06:04 2,8 C 1,7 C -1,1 C 85 % 1029,3 hPa 0,0 l/m 0 min 0 min 0 W/m 0,0 km/h (0 Bft) 97,87 %
24.03.2022 06:08 2,8 C 1,7 C -1,1 C 85 % 1029,4 hPa 0,0 l/m 0 min 0 min 0 W/m 0,0 km/h (0 Bft) 96,81 %
24.03.2022 06:10 2,8 C 1,7 C -1,1 C 85 % 1029,3 hPa 0,0 l/m 0 min 0 min 0 W/m 0,0 km/h (0 Bft) 93,62 %
24.03.2022 06:12 2,8 C 1,7 C -1,1 C 85 % 1029,3 hPa 0,0 l/m 0 min 0 min 0 W/m 3,2 km/h (1 Bft) 95,74 %
24.03.2022 06:14 2,8 C 1,7 C -1,1 C 85 % 1029,4 hPa 0,0 l/m 0 min 0 min 0 W/m 0,0 km/h (0 Bft) 100,00 %
24.03.2022 06:16 2,8 C 1,7 C -1,1 C 85 % 1029,3 hPa 0,0 l/m 0 min 0 min 0 W/m 0,0 km/h (0 Bft) 68,09 %
24.03.2022 06:18 2,7 C 1,7 C -1,1 C 86 % 1029,3 hPa 0,0 l/m 0 min 0 min 0 W/m 0,0 km/h (0 Bft) 84,44 %
24.03.2022 06:20 2,7 C 1,7 C -1,1 C 86 % 1029,3 hPa 0,0 l/m 0 min 0 min 0 W/m 0,0 km/h (0 Bft) 97,87 %
24.03.2022 06:22 2,7 C 1,7 C -1,1 C 86 % 1029,3 hPa 0,0 l/m 0 min 0 min 0 W/m 0,0 km/h (0 Bft) 97,87 %
24.03.2022 06:24 2,7 C 1,7 C -1,1 C 86 % 1029,3 hPa 0,0 l/m 0 min 0 min 0 W/m 0,0 km/h (0 Bft) 97,87 %
24.03.2022 06:26 2,7 C 1,7 C -1,7 C 86 % 1029,3 hPa 0,0 l/m 0 min 0 min 0 W/m 0,0 km/h (0 Bft) 95,74 %
24.03.2022 06:28 2,6 C 1,7 C -1,7 C 86 % 1029,3 hPa 0,0 l/m 0 min 0 min 1 W/m 0,0 km/h (0 Bft) 97,87 %
24.03.2022 06:30 2,6 C 1,7 C -1,1 C 86 % 1029,3 hPa 0,0 l/m 0 min 0 min 5 W/m 0,0 km/h (0 Bft) 97,83 %
24.03.2022 06:32 2,6 C 1,7 C -1,7 C 86 % 1029,3 hPa 0,0 l/m 0 min 0 min 5 W/m 0,0 km/h (0 Bft) 95,74 %
24.03.2022 06:34 2,6 C 1,7 C -1,7 C 86 % 1029,3 hPa 0,0 l/m 0 min 0 min 6 W/m 0,0 km/h (0 Bft) 97,87 %
24.03.2022 06:36 2,6 C 1,7 C -1,1 C 86 % 1029,3 hPa 0,0 l/m 0 min 0 min 7 W/m 0,0 km/h (0 Bft) 95,74 %
24.03.2022 06:38 2,6 C 1,7 C -1,1 C 86 % 1029,3 hPa 0,0 l/m 0 min 0 min 8 W/m 0,0 km/h (0 Bft) 95,74 %
24.03.2022 06:40 2,5 C 1,7 C -1,1 C 86 % 1029,3 hPa 0,0 l/m 0 min 0 min 9 W/m 0,0 km/h (0 Bft) 97,83 %
24.03.2022 06:42 2,5 C 1,7 C -1,1 C 86 % 1029,2 hPa 0,0 l/m 0 min 0 min 11 W/m 0,0 km/h (0 Bft) 100,00 %
24.03.2022 06:44 2,5 C 1,7 C -1,1 C 86 % 1029,3 hPa 0,0 l/m 0 min 0 min 12 W/m 0,0 km/h (0 Bft) 100,00 %
24.03.2022 06:46 2,4 C 1,7 C -1,7 C 86 % 1029,3 hPa 0,0 l/m 0 min 0 min 12 W/m 0,0 km/h (0 Bft) 100,00 %
24.03.2022 06:48 2,4 C 1,7 C -1,1 C 86 % 1029,2 hPa 0,0 l/m 0 min 0 min 14 W/m 0,0 km/h (0 Bft) 100,00 %
24.03.2022 06:50 2,4 C 1,7 C -1,7 C 86 % 1029,3 hPa 0,0 l/m 0 min 0 min 14 W/m 0,0 km/h (0 Bft) 100,00 %
24.03.2022 06:52 2,4 C 1,7 C -1,1 C 86 % 1029,3 hPa 0,0 l/m 0 min 0 min 16 W/m 0,0 km/h (0 Bft) 97,83 %
24.03.2022 06:54 2,4 C 1,7 C -1,1 C 86 % 1029,3 hPa 0,0 l/m 0 min 0 min 18 W/m 0,0 km/h (0 Bft) 100,00 %
24.03.2022 06:56 2,3 C 1,7 C -1,1 C 86 % 1029,3 hPa 0,0 l/m 0 min 0 min 18 W/m 0,0 km/h (0 Bft) 100,00 %
24.03.2022 06:58 2,3 C 1,7 C -1,1 C 86 % 1029,4 hPa 0,0 l/m 0 min 0 min 19 W/m 0,0 km/h (0 Bft) 100,00 %
24.03.2022 07:00 2,3 C 1,7 C -1,1 C 86 % 1029,4 hPa 0,0 l/m 0 min 0 min 21 W/m 0,0 km/h (0 Bft) 100,00 %
24.03.2022 07:02 2,3 C 1,7 C -1,1 C 86 % 1029,4 hPa 0,0 l/m 0 min 0 min 22 W/m 0,0 km/h (0 Bft) 97,87 %
24.03.2022 07:04 2,3 C 1,7 C -1,1 C 86 % 1029,4 hPa 0,0 l/m 0 min 0 min 23 W/m 0,0 km/h (0 Bft) 100,00 %
24.03.2022 07:06 2,3 C 1,7 C -1,1 C 86 % 1029,4 hPa 0,0 l/m 0 min 0 min 25 W/m 0,0 km/h (0 Bft) 93,62 %
24.03.2022 07:08 2,3 C 1,7 C -1,1 C 87 % 1029,4 hPa 0,0 l/m 0 min 0 min 26 W/m 0,0 km/h (0 Bft) 100,00 %
24.03.2022 07:10 2,3 C 2,2 C -1,1 C 87 % 1029,4 hPa 0,0 l/m 0 min 0 min 26 W/m 0,0 km/h (0 Bft) 100,00 %
24.03.2022 07:12 2,3 C 2,2 C -1,1 C 87 % 1029,4 hPa 0,0 l/m 0 min 0 min 28 W/m 0,0 km/h (0 Bft) 95,74 %
24.03.2022 07:14 2,3 C 2,2 C -1,1 C 87 % 1029,5 hPa 0,0 l/m 0 min 0 min 29 W/m 0,0 km/h (0 Bft) 100,00 %
24.03.2022 07:16 2,3 C 2,2 C -1,1 C 87 % 1029,5 hPa 0,0 l/m 0 min 0 min 30 W/m 0,0 km/h (0 Bft) 100,00 %
24.03.2022 07:18 2,3 C 2,2 C -1,1 C 87 % 1029,5 hPa 0,0 l/m 0 min 0 min 32 W/m 0,0 km/h (0 Bft) 100,00 %
24.03.2022 07:20 2,3 C 2,2 C -1,1 C 87 % 1029,5 hPa 0,0 l/m 0 min 0 min 32 W/m 0,0 km/h (0 Bft) 100,00 %
24.03.2022 07:22 2,3 C 2,2 C -1,1 C 87 % 1029,5 hPa 0,0 l/m 0 min 0 min 33 W/m 0,0 km/h (0 Bft) 97,87 %
24.03.2022 07:24 2,3 C 2,2 C -0,6 C 87 % 1029,5 hPa 0,0 l/m 0 min 0 min 35 W/m 0,0 km/h (0 Bft) 95,74 %
24.03.2022 07:26 2,3 C 2,2 C -0,6 C 87 % 1029,5 hPa 0,0 l/m 0 min 0 min 35 W/m 0,0 km/h (0 Bft) 97,87 %
24.03.2022 07:28 2,3 C 2,2 C -0,6 C 87 % 1029,5 hPa 0,0 l/m 0 min 0 min 37 W/m 0,0 km/h (0 Bft) 97,83 %
24.03.2022 07:30 2,3 C 2,8 C -0,6 C 87 % 1029,5 hPa 0,0 l/m 0 min 0 min 38 W/m 0,0 km/h (0 Bft) 97,87 %
24.03.2022 07:32 2,3 C 2,8 C -0,6 C 87 % 1029,5 hPa 0,0 l/m 0 min 0 min 39 W/m 0,0 km/h (0 Bft) 97,87 %
24.03.2022 07:34 2,3 C 2,8 C -0,6 C 88 % 1029,5 hPa 0,0 l/m 0 min 0 min 39 W/m 0,0 km/h (0 Bft) 97,87 %
24.03.2022 07:36 2,3 C 2,8 C -0,6 C 88 % 1029,5 hPa 0,0 l/m 0 min 0 min 40 W/m 0,0 km/h (0 Bft) 97,87 %
24.03.2022 07:38 2,3 C 2,8 C -0,6 C 88 % 1029,6 hPa 0,0 l/m 0 min 0 min 42 W/m 0,0 km/h (0 Bft) 97,87 %
24.03.2022 07:40 2,3 C 2,8 C -0,6 C 88 % 1029,5 hPa 0,0 l/m 0 min 0 min 42 W/m 0,0 km/h (0 Bft) 97,83 %
24.03.2022 07:42 2,3 C 2,8 C -0,6 C 88 % 1029,6 hPa 0,0 l/m 0 min 0 min 44 W/m 0,0 km/h (0 Bft) 97,87 %
24.03.2022 07:44 2,3 C 3,3 C 0,0 C 88 % 1029,5 hPa 0,0 l/m 0 min 0 min 44 W/m 0,0 km/h (0 Bft) 97,87 %
24.03.2022 07:46 2,4 C 3,3 C 0,0 C 88 % 1029,5 hPa 0,0 l/m 0 min 0 min 46 W/m 0,0 km/h (0 Bft) 97,87 %
24.03.2022 07:48 2,4 C 3,3 C 0,0 C 89 % 1029,5 hPa 0,0 l/m 0 min 0 min 46 W/m 0,0 km/h (0 Bft) 97,87 %
24.03.2022 07:50 2,4 C 3,3 C 0,0 C 89 % 1029,5 hPa 0,0 l/m 0 min 0 min 47 W/m 0,0 km/h (0 Bft) 59,57 %
24.03.2022 07:52 2,5 C 3,3 C 0,0 C 89 % 1029,5 hPa 0,0 l/m 0 min 0 min 47 W/m 0,0 km/h (0 Bft) 90,70 %
24.03.2022 07:54 2,5 C 3,3 C 0,0 C 89 % 1029,5 hPa 0,0 l/m 0 min 0 min 48 W/m 0,0 km/h (0 Bft) 97,87 %
24.03.2022 07:56 2,6 C 3,3 C 0,0 C 89 % 1029,5 hPa 0,0 l/m 0 min 0 min 49 W/m 0,0 km/h (0 Bft) 97,87 %
24.03.2022 07:58 2,6 C 3,9 C 0,0 C 89 % 1029,5 hPa 0,0 l/m 0 min 0 min 49 W/m 0,0 km/h (0 Bft) 97,87 %
24.03.2022 08:00 2,6 C 3,9 C 0,0 C 89 % 1029,5 hPa 0,0 l/m 0 min 0 min 51 W/m 0,0 km/h (0 Bft) 95,74 %
24.03.2022 08:02 2,7 C 3,9 C 0,6 C 90 % 1029,5 hPa 0,0 l/m 0 min 0 min 52 W/m 0,0 km/h (0 Bft) 95,65 %
24.03.2022 08:04 2,7 C 3,9 C 0,6 C 90 % 1029,5 hPa 0,0 l/m 0 min 0 min 53 W/m 0,0 km/h (0 Bft) 97,87 %
24.03.2022 08:06 2,8 C 3,9 C 0,6 C 90 % 1029,5 hPa 0,0 l/m 0 min 0 min 54 W/m 0,0 km/h (0 Bft) 95,74 %
24.03.2022 08:08 2,8 C 4,4 C 0,6 C 90 % 1029,5 hPa 0,0 l/m 0 min 0 min 54 W/m 0,0 km/h (0 Bft) 97,87 %
24.03.2022 08:10 2,9 C 4,4 C 0,6 C 90 % 1029,5 hPa 0,0 l/m 0 min 0 min 56 W/m 0,0 km/h (0 Bft) 97,87 %
24.03.2022 08:12 2,9 C 4,4 C 0,6 C 90 % 1029,5 hPa 0,0 l/m 0 min 0 min 56 W/m 0,0 km/h (0 Bft) 95,74 %
24.03.2022 08:14 3,0 C 5,0 C 0,6 C 90 % 1029,6 hPa 0,0 l/m 0 min 0 min 57 W/m 0,0 km/h (0 Bft) 97,83 %
24.03.2022 08:16 3,1 C 5,0 C 1,1 C 91 % 1029,6 hPa 0,0 l/m 0 min 0 min 58 W/m 0,0 km/h (0 Bft) 97,87 %
24.03.2022 08:18 3,2 C 5,0 C 1,1 C 91 % 1029,6 hPa 0,0 l/m 0 min 0 min 60 W/m 0,0 km/h (0 Bft) 100,00 %
24.03.2022 08:20 3,2 C 5,0 C 1,1 C 91 % 1029,6 hPa 0,0 l/m 0 min 0 min 61 W/m 0,0 km/h (0 Bft) 100,00 %
24.03.2022 08:22 3,3 C 5,6 C 1,1 C 91 % 1029,7 hPa 0,0 l/m 0 min 0 min 62 W/m 0,0 km/h (0 Bft) 95,74 %
24.03.2022 08:24 3,3 C 5,6 C 1,7 C 91 % 1029,6 hPa 0,0 l/m 0 min 0 min 63 W/m 0,0 km/h (0 Bft) 97,87 %
24.03.2022 08:26 3,4 C 5,6 C 1,7 C 91 % 1029,7 hPa 0,0 l/m 0 min 0 min 63 W/m 0,0 km/h (0 Bft) 100,00 %
24.03.2022 08:28 3,4 C 6,1 C 1,7 C 91 % 1029,7 hPa 0,0 l/m 0 min 0 min 64 W/m 0,0 km/h (0 Bft) 100,00 %
24.03.2022 08:30 3,6 C 6,1 C 1,7 C 91 % 1029,7 hPa 0,0 l/m 0 min 0 min 100 W/m 0,0 km/h (0 Bft) 100,00 %
24.03.2022 08:32 3,7 C 6,1 C 2,2 C 91 % 1029,7 hPa 0,0 l/m 2 min 0 min 177 W/m 3,2 km/h (1 Bft) 100,00 %
24.03.2022 08:34 3,7 C 6,1 C 2,2 C 91 % 1029,7 hPa 0,0 l/m 2 min 0 min 168 W/m 0,0 km/h (0 Bft) 100,00 %
24.03.2022 08:36 3,8 C 6,7 C 2,2 C 91 % 1029,7 hPa 0,0 l/m 2 min 0 min 170 W/m 0,0 km/h (0 Bft) 100,00 %
24.03.2022 08:38 3,9 C 6,7 C 2,2 C 91 % 1029,8 hPa 0,0 l/m 0 min 0 min 127 W/m 0,0 km/h (0 Bft) 100,00 %
24.03.2022 08:40 4,0 C 6,7 C 2,2 C 91 % 1029,7 hPa 0,0 l/m 0 min 0 min 128 W/m 0,0 km/h (0 Bft) 100,00 %
24.03.2022 08:42 4,1 C 6,7 C 2,2 C 91 % 1029,8 hPa 0,0 l/m 2 min 0 min 171 W/m 0,0 km/h (0 Bft) 97,87 %
24.03.2022 08:44 4,2 C 7,2 C 2,8 C 90 % 1029,7 hPa 0,0 l/m 2 min 0 min 221 W/m 0,0 km/h (0 Bft) 97,87 %
24.03.2022 08:46 4,3 C 7,8 C 2,8 C 90 % 1029,8 hPa 0,0 l/m 2 min 0 min 294 W/m 3,2 km/h (1 Bft) 97,87 %
24.03.2022 08:48 4,4 C 8,3 C 2,8 C 90 % 1029,7 hPa 0,0 l/m 2 min 0 min 308 W/m 3,2 km/h (1 Bft) 97,87 %
24.03.2022 08:50 4,6 C 8,3 C 2,8 C 90 % 1029,8 hPa 0,0 l/m 2 min 0 min 314 W/m 0,0 km/h (0 Bft) 97,83 %
24.03.2022 08:52 4,7 C 9,4 C 3,3 C 89 % 1029,8 hPa 0,0 l/m 2 min 0 min 320 W/m 3,2 km/h (1 Bft) 97,87 %
24.03.2022 08:54 4,9 C 10,0 C 3,3 C 89 % 1029,8 hPa 0,0 l/m 2 min 0 min 325 W/m 3,2 km/h (1 Bft) 95,74 %
24.03.2022 08:56 5,3 C 10,6 C 3,9 C 89 % 1029,7 hPa 0,0 l/m 2 min 0 min 331 W/m 3,2 km/h (1 Bft) 97,87 %
24.03.2022 08:58 5,6 C 12,2 C 3,9 C 88 % 1029,8 hPa 0,0 l/m 2 min 0 min 337 W/m 0,0 km/h (0 Bft) 97,87 %
24.03.2022 09:00 5,8 C 13,3 C 4,4 C 87 % 1029,8 hPa 0,0 l/m 2 min 0 min 341 W/m 0,0 km/h (0 Bft) 95,74 %
24.03.2022 09:02 5,9 C 14,4 C 4,4 C 86 % 1029,9 hPa 0,0 l/m 2 min 0 min 346 W/m 0,0 km/h (0 Bft) 97,83 %
24.03.2022 09:04 6,2 C 15,0 C 4,4 C 86 % 1029,9 hPa 0,0 l/m 2 min 0 min 351 W/m 3,2 km/h (1 Bft) 93,62 %
24.03.2022 09:06 6,6 C 15,6 C 5,0 C 86 % 1029,8 hPa 0,0 l/m 2 min 0 min 301 W/m 6,4 km/h (2 Bft) 97,87 %
24.03.2022 09:08 7,0 C 15,0 C 5,0 C 86 % 1029,8 hPa 0,0 l/m 2 min 0 min 290 W/m 0,0 km/h (0 Bft) 97,87 %
24.03.2022 09:10 7,3 C 15,0 C 5,0 C 85 % 1029,9 hPa 0,0 l/m 2 min 0 min 339 W/m 0,0 km/h (0 Bft) 97,87 %
24.03.2022 09:12 7,6 C 15,6 C 6,1 C 84 % 1029,9 hPa 0,0 l/m 2 min 0 min 329 W/m 3,2 km/h (1 Bft) 97,87 %
24.03.2022 09:14 8,0 C 15,6 C 6,7 C 81 % 1030,0 hPa 0,0 l/m 2 min 0 min 215 W/m 6,4 km/h (2 Bft) 100,00 %
24.03.2022 09:16 8,3 C 16,1 C 7,8 C 79 % 1029,9 hPa 0,0 l/m 2 min 0 min 241 W/m 6,4 km/h (2 Bft) 100,00 %
24.03.2022 09:18 8,6 C 16,7 C 8,3 C 77 % 1029,9 hPa 0,0 l/m 2 min 0 min 267 W/m 3,2 km/h (1 Bft) 97,87 %
24.03.2022 09:20 8,9 C 16,7 C 8,9 C 73 % 1030,0 hPa 0,0 l/m 2 min 0 min 322 W/m 3,2 km/h (1 Bft) 100,00 %
24.03.2022 09:22 9,2 C 16,7 C 8,9 C 73 % 1029,9 hPa 0,0 l/m 2 min 0 min 364 W/m 3,2 km/h (1 Bft) 100,00 %
24.03.2022 09:24 9,4 C 16,7 C 9,4 C 71 % 1029,9 hPa 0,0 l/m 2 min 0 min 394 W/m 3,2 km/h (1 Bft) 100,00 %
24.03.2022 09:26 9,7 C 16,7 C 9,4 C 70 % 1030,0 hPa 0,0 l/m 2 min 0 min 303 W/m 3,2 km/h (1 Bft) 100,00 %
24.03.2022 09:28 10,0 C 16,7 C 9,4 C 70 % 1029,9 hPa 0,0 l/m 2 min 0 min 308 W/m 6,4 km/h (2 Bft) 100,00 %
24.03.2022 09:30 10,2 C 16,7 C 9,4 C 68 % 1030,0 hPa 0,0 l/m 2 min 0 min 426 W/m 3,2 km/h (1 Bft) 97,87 %
24.03.2022 09:32 10,4 C 16,7 C 9,4 C 67 % 1030,0 hPa 0,0 l/m 2 min 0 min 418 W/m 6,4 km/h (2 Bft) 97,87 %
24.03.2022 09:34 10,6 C 16,7 C 9,4 C 67 % 1030,0 hPa 0,0 l/m 2 min 0 min 291 W/m 3,2 km/h (1 Bft) 100,00 %
24.03.2022 09:36 10,8 C 16,7 C 9,4 C 66 % 1029,9 hPa 0,0 l/m 2 min 0 min 253 W/m 3,2 km/h (1 Bft) 97,83 %
24.03.2022 09:38 10,9 C 16,7 C 8,9 C 65 % 1029,9 hPa 0,0 l/m 2 min 0 min 400 W/m 6,4 km/h (2 Bft) 100,00 %
24.03.2022 09:40 11,1 C 16,7 C 8,9 C 65 % 1029,9 hPa 0,0 l/m 2 min 0 min 360 W/m 6,4 km/h (2 Bft) 100,00 %
24.03.2022 09:42 11,3 C 16,1 C 8,9 C 65 % 1029,9 hPa 0,0 l/m 2 min 0 min 353 W/m 6,4 km/h (2 Bft) 100,00 %
24.03.2022 09:44 11,4 C 15,6 C 9,4 C 65 % 1030,0 hPa 0,0 l/m 2 min 0 min 428 W/m 6,4 km/h (2 Bft) 100,00 %
24.03.2022 09:46 11,5 C 16,1 C 8,9 C 65 % 1030,0 hPa 0,0 l/m 2 min 0 min 292 W/m 6,4 km/h (2 Bft) 97,87 %
24.03.2022 09:48 11,7 C 15,6 C 9,4 C 64 % 1029,9 hPa 0,0 l/m 0 min 0 min 204 W/m 6,4 km/h (2 Bft) 100,00 %
24.03.2022 09:50 11,8 C 15,6 C 9,4 C 62 % 1029,9 hPa 0,0 l/m 2 min 0 min 282 W/m 6,4 km/h (2 Bft) 100,00 %
24.03.2022 09:52 11,8 C 15,0 C 9,4 C 62 % 1029,9 hPa 0,0 l/m 2 min 0 min 302 W/m 3,2 km/h (1 Bft) 100,00 %
24.03.2022 09:54 11,9 C 14,4 C 9,4 C 62 % 1030,0 hPa 0,0 l/m 0 min 0 min 212 W/m 3,2 km/h (1 Bft) 100,00 %
24.03.2022 09:56 11,9 C 14,4 C 9,4 C 61 % 1029,9 hPa 0,0 l/m 0 min 0 min 177 W/m 3,2 km/h (1 Bft) 100,00 %
24.03.2022 09:58 12,0 C 15,0 C 9,4 C 60 % 1030,0 hPa 0,0 l/m 2 min 0 min 259 W/m 9,7 km/h (2 Bft) 97,87 %
24.03.2022 10:00 12,1 C 15,0 C 10,0 C 59 % 1030,0 hPa 0,0 l/m 2 min 0 min 340 W/m 3,2 km/h (1 Bft) 97,83 %
24.03.2022 10:02 12,1 C 15,0 C 10,0 C 58 % 1030,0 hPa 0,0 l/m 2 min 0 min 341 W/m 3,2 km/h (1 Bft) 97,87 %
24.03.2022 10:04 12,2 C 15,0 C 10,0 C 58 % 1030,0 hPa 0,0 l/m 2 min 0 min 281 W/m 3,2 km/h (1 Bft) 97,87 %
24.03.2022 10:06 12,3 C 15,0 C 10,0 C 57 % 1030,0 hPa 0,0 l/m 2 min 0 min 396 W/m 6,4 km/h (2 Bft) 97,87 %
24.03.2022 10:08 12,3 C 14,4 C 10,0 C 56 % 1030,0 hPa 0,0 l/m 2 min 0 min 469 W/m 6,4 km/h (2 Bft) 97,87 %
24.03.2022 10:10 12,3 C 14,4 C 10,6 C 56 % 1030,1 hPa 0,0 l/m 2 min 0 min 375 W/m 6,4 km/h (2 Bft) 97,87 %
24.03.2022 10:12 12,4 C 15,0 C 11,1 C 57 % 1030,0 hPa 0,0 l/m 2 min 0 min 506 W/m 6,4 km/h (2 Bft) 97,83 %
24.03.2022 10:14 12,5 C 15,6 C 11,7 C 57 % 1030,1 hPa 0,0 l/m 2 min 0 min 530 W/m 6,4 km/h (2 Bft) 97,87 %
24.03.2022 10:16 12,7 C 16,7 C 12,2 C 58 % 1030,0 hPa 0,0 l/m 2 min 0 min 535 W/m 3,2 km/h (1 Bft) 97,87 %
24.03.2022 10:18 12,7 C 17,2 C 12,8 C 56 % 1030,1 hPa 0,0 l/m 2 min 0 min 540 W/m 3,2 km/h (1 Bft) 95,74 %
24.03.2022 10:20 12,9 C 17,2 C 12,8 C 56 % 1030,0 hPa 0,0 l/m 2 min 0 min 545 W/m 6,4 km/h (2 Bft) 97,87 %
24.03.2022 10:22 13,1 C 17,2 C 13,3 C 55 % 1030,1 hPa 0,0 l/m 2 min 0 min 546 W/m 0,0 km/h (0 Bft) 95,74 %
24.03.2022 10:24 13,2 C 17,2 C 13,3 C 56 % 1030,1 hPa 0,0 l/m 2 min 0 min 545 W/m 3,2 km/h (1 Bft) 97,83 %
24.03.2022 10:26 13,3 C 17,2 C 13,3 C 56 % 1030,1 hPa 0,0 l/m 2 min 0 min 468 W/m 6,4 km/h (2 Bft) 97,87 %
24.03.2022 10:28 13,4 C 16,7 C 13,9 C 55 % 1030,1 hPa 0,0 l/m 2 min 0 min 322 W/m 6,4 km/h (2 Bft) 97,87 %
24.03.2022 10:30 13,5 C 16,7 C 13,9 C 55 % 1030,1 hPa 0,0 l/m 2 min 0 min 452 W/m 6,4 km/h (2 Bft) 97,87 %
24.03.2022 10:32 13,7 C 17,2 C 14,4 C 55 % 1030,0 hPa 0,0 l/m 2 min 0 min 347 W/m 3,2 km/h (1 Bft) 97,87 %
24.03.2022 10:34 13,8 C 17,8 C 15,0 C 55 % 1030,0 hPa 0,0 l/m 2 min 0 min 340 W/m 3,2 km/h (1 Bft) 100,00 %
24.03.2022 10:36 13,8 C 17,8 C 15,6 C 54 % 1030,1 hPa 0,0 l/m 2 min 0 min 480 W/m 3,2 km/h (1 Bft) 100,00 %
24.03.2022 10:38 13,9 C 18,3 C 15,6 C 55 % 1030,1 hPa 0,0 l/m 2 min 0 min 566 W/m 6,4 km/h (2 Bft) 100,00 %
24.03.2022 10:40 14,1 C 18,9 C 16,1 C 55 % 1030,1 hPa 0,0 l/m 2 min 0 min 576 W/m 3,2 km/h (1 Bft) 100,00 %
24.03.2022 10:42 14,2 C 18,9 C 16,7 C 55 % 1030,0 hPa 0,0 l/m 2 min 0 min 531 W/m 6,4 km/h (2 Bft) 100,00 %
24.03.2022 10:44 14,3 C 17,8 C 16,7 C 55 % 1030,1 hPa 0,0 l/m 2 min 0 min 578 W/m 3,2 km/h (1 Bft) 100,00 %
24.03.2022 10:46 14,3 C 18,9 C 17,2 C 55 % 1030,0 hPa 0,0 l/m 2 min 0 min 591 W/m 12,9 km/h (3 Bft) 97,87 %
24.03.2022 10:48 14,3 C 18,9 C 17,2 C 54 % 1030,0 hPa 0,0 l/m 2 min 0 min 594 W/m 6,4 km/h (2 Bft) 100,00 %
24.03.2022 10:50 14,3 C 18,9 C 17,8 C 55 % 1030,0 hPa 0,0 l/m 2 min 0 min 597 W/m 3,2 km/h (1 Bft) 100,00 %
24.03.2022 10:52 14,3 C 19,4 C 18,9 C 55 % 1030,0 hPa 0,0 l/m 2 min 0 min 599 W/m 6,4 km/h (2 Bft) 95,74 %
24.03.2022 10:54 14,6 C 20,0 C 18,9 C 55 % 1030,0 hPa 0,0 l/m 2 min 0 min 602 W/m 9,7 km/h (2 Bft) 97,87 %
24.03.2022 10:56 14,7 C 20,6 C 18,9 C 55 % 1029,9 hPa 0,0 l/m 2 min 0 min 604 W/m 6,4 km/h (2 Bft) 95,74 %
24.03.2022 10:58 14,9 C 20,6 C 19,4 C 55 % 1030,0 hPa 0,0 l/m 2 min 0 min 607 W/m 6,4 km/h (2 Bft) 97,87 %
24.03.2022 11:00 14,9 C 19,4 C 18,3 C 54 % 1029,9 hPa 0,0 l/m 2 min 0 min 611 W/m 6,4 km/h (2 Bft) 97,83 %
24.03.2022 11:02 14,9 C 19,4 C 18,9 C 54 % 1029,9 hPa 0,0 l/m 2 min 0 min 616 W/m 6,4 km/h (2 Bft) 95,74 %
24.03.2022 11:04 14,9 C 20,0 C 18,9 C 54 % 1029,9 hPa 0,0 l/m 2 min 0 min 619 W/m 6,4 km/h (2 Bft) 97,87 %
24.03.2022 11:06 15,1 C 20,6 C 19,4 C 55 % 1030,0 hPa 0,0 l/m 2 min 0 min 621 W/m 6,4 km/h (2 Bft) 97,87 %
24.03.2022 11:08 15,2 C 20,6 C 20,0 C 55 % 1030,0 hPa 0,0 l/m 2 min 0 min 622 W/m 3,2 km/h (1 Bft) 97,87 %
24.03.2022 11:10 15,3 C 20,6 C 20,0 C 54 % 1030,0 hPa 0,0 l/m 2 min 0 min 626 W/m 9,7 km/h (2 Bft) 97,87 %
24.03.2022 11:12 15,3 C 21,1 C 20,0 C 54 % 1029,9 hPa 0,0 l/m 2 min 0 min 628 W/m 9,7 km/h (2 Bft) 97,83 %
24.03.2022 11:14 15,4 C 21,1 C 20,0 C 54 % 1029,9 hPa 0,0 l/m 2 min 0 min 630 W/m 6,4 km/h (2 Bft) 97,87 %
24.03.2022 11:16 15,6 C 22,2 C 19,4 C 54 % 1029,9 hPa 0,0 l/m 2 min 0 min 634 W/m 12,9 km/h (3 Bft) 97,87 %
24.03.2022 11:18 15,7 C 22,2 C 20,0 C 54 % 1029,8 hPa 0,0 l/m 2 min 0 min 636 W/m 6,4 km/h (2 Bft) 95,74 %
24.03.2022 11:20 15,8 C 22,2 C 20,6 C 53 % 1029,8 hPa 0,0 l/m 2 min 0 min 638 W/m 3,2 km/h (1 Bft) 97,87 %
24.03.2022 11:22 16,0 C 22,8 C 21,1 C 52 % 1029,8 hPa 0,0 l/m 2 min 0 min 641 W/m 6,4 km/h (2 Bft) 97,87 %
24.03.2022 11:24 16,1 C 22,8 C 21,1 C 52 % 1029,9 hPa 0,0 l/m 2 min 0 min 643 W/m 6,4 km/h (2 Bft) 97,83 %
24.03.2022 11:26 16,2 C 22,8 C 21,1 C 52 % 1029,9 hPa 0,0 l/m 2 min 0 min 645 W/m 6,4 km/h (2 Bft) 97,87 %
24.03.2022 11:28 16,3 C 22,8 C 20,6 C 52 % 1029,9 hPa 0,0 l/m 2 min 0 min 648 W/m 6,4 km/h (2 Bft) 95,74 %
24.03.2022 11:30 16,4 C 23,3 C 21,1 C 52 % 1029,9 hPa 0,0 l/m 2 min 0 min 652 W/m 6,4 km/h (2 Bft) 95,74 %
24.03.2022 11:32 16,4 C 23,9 C 21,1 C 51 % 1029,8 hPa 0,0 l/m 2 min 0 min 653 W/m 6,4 km/h (2 Bft) 97,87 %
24.03.2022 11:34 16,4 C 23,9 C 21,7 C 50 % 1029,8 hPa 0,0 l/m 2 min 0 min 654 W/m 9,7 km/h (2 Bft) 100,00 %
24.03.2022 11:36 16,5 C 23,9 C 21,7 C 51 % 1029,9 hPa 0,0 l/m 2 min 0 min 655 W/m 6,4 km/h (2 Bft) 100,00 %
24.03.2022 11:38 16,6 C 24,4 C 21,7 C 50 % 1029,9 hPa 0,0 l/m 2 min 0 min 657 W/m 3,2 km/h (1 Bft) 100,00 %
24.03.2022 11:40 16,7 C 23,9 C 21,1 C 50 % 1029,9 hPa 0,0 l/m 2 min 0 min 657 W/m 6,4 km/h (2 Bft) 97,87 %
24.03.2022 11:42 16,7 C 24,4 C 21,7 C 50 % 1029,9 hPa 0,0 l/m 2 min 0 min 660 W/m 6,4 km/h (2 Bft) 97,87 %
24.03.2022 11:44 16,8 C 23,9 C 21,1 C 50 % 1029,9 hPa 0,0 l/m 2 min 0 min 664 W/m 6,4 km/h (2 Bft) 100,00 %
24.03.2022 11:46 16,9 C 23,3 C 20,6 C 49 % 1029,8 hPa 0,0 l/m 2 min 0 min 668 W/m 9,7 km/h (2 Bft) 97,83 %
24.03.2022 11:48 17,0 C 23,9 C 20,6 C 49 % 1029,9 hPa 0,0 l/m 2 min 0 min 667 W/m 9,7 km/h (2 Bft) 97,87 %
24.03.2022 11:50 17,1 C 23,9 C 20,0 C 48 % 1029,8 hPa 0,0 l/m 2 min 0 min 667 W/m 6,4 km/h (2 Bft) 97,87 %
24.03.2022 11:52 17,2 C 23,9 C 18,9 C 49 % 1029,8 hPa 0,0 l/m 2 min 0 min 669 W/m 6,4 km/h (2 Bft) 100,00 %
24.03.2022 11:54 17,2 C 23,9 C 18,9 C 49 % 1029,8 hPa 0,0 l/m 2 min 0 min 672 W/m 6,4 km/h (2 Bft) 100,00 %
24.03.2022 11:56 17,2 C 23,3 C 18,3 C 48 % 1029,8 hPa 0,0 l/m 2 min 0 min 673 W/m 9,7 km/h (2 Bft) 100,00 %
24.03.2022 11:58 17,3 C 22,2 C 17,8 C 48 % 1029,8 hPa 0,0 l/m 2 min 0 min 673 W/m 9,7 km/h (2 Bft) 100,00 %
24.03.2022 12:00 17,2 C 21,1 C 17,8 C 46 % 1029,8 hPa 0,0 l/m 2 min 0 min 676 W/m 6,4 km/h (2 Bft) 100,00 %
24.03.2022 12:02 17,1 C 21,1 C 17,8 C 47 % 1029,8 hPa 0,0 l/m 2 min 0 min 678 W/m 3,2 km/h (1 Bft) 95,92 %
24.03.2022 12:04 17,2 C 20,6 C 17,8 C 46 % 1029,8 hPa 0,0 l/m 2 min 0 min 677 W/m 9,7 km/h (2 Bft) 97,87 %
24.03.2022 12:08 17,2 C 19,4 C 17,2 C 46 % 1029,8 hPa 0,0 l/m 4 min 0 min 680 W/m 6,4 km/h (2 Bft) 97,85 %
24.03.2022 12:10 17,2 C 19,4 C 16,7 C 46 % 1029,7 hPa 0,0 l/m 2 min 0 min 681 W/m 9,7 km/h (2 Bft) 97,87 %
24.03.2022 12:12 17,2 C 18,9 C 16,1 C 46 % 1029,7 hPa 0,0 l/m 2 min 0 min 682 W/m 6,4 km/h (2 Bft) 97,87 %
24.03.2022 12:14 17,3 C 18,3 C 15,6 C 47 % 1029,7 hPa 0,0 l/m 2 min 0 min 682 W/m 9,7 km/h (2 Bft) 97,87 %
24.03.2022 12:16 17,3 C 18,9 C 15,6 C 47 % 1029,7 hPa 0,0 l/m 2 min 0 min 685 W/m 9,7 km/h (2 Bft) 97,87 %
24.03.2022 12:18 17,3 C 18,3 C 15,6 C 45 % 1029,7 hPa 0,0 l/m 2 min 0 min 685 W/m 9,7 km/h (2 Bft) 97,87 %
24.03.2022 12:20 17,3 C 18,3 C 15,6 C 45 % 1029,7 hPa 0,0 l/m 2 min 0 min 686 W/m 12,9 km/h (3 Bft) 95,65 %
24.03.2022 12:22 17,2 C 18,3 C 15,0 C 45 % 1029,7 hPa 0,0 l/m 2 min 0 min 688 W/m 12,9 km/h (3 Bft) 97,87 %
24.03.2022 12:24 17,1 C 18,3 C 15,0 C 45 % 1029,7 hPa 0,0 l/m 2 min 0 min 687 W/m 6,4 km/h (2 Bft) 95,74 %
24.03.2022 12:26 16,9 C 18,3 C 15,0 C 45 % 1029,7 hPa 0,0 l/m 2 min 0 min 687 W/m 6,4 km/h (2 Bft) 97,87 %
24.03.2022 12:28 16,9 C 18,9 C 15,0 C 46 % 1029,7 hPa 0,0 l/m 2 min 0 min 687 W/m 9,7 km/h (2 Bft) 93,62 %
24.03.2022 12:30 16,9 C 20,0 C 15,6 C 46 % 1029,6 hPa 0,0 l/m 2 min 0 min 687 W/m 9,7 km/h (2 Bft) 97,87 %
24.03.2022 12:32 17,1 C 20,6 C 15,6 C 46 % 1029,6 hPa 0,0 l/m 2 min 0 min 686 W/m 6,4 km/h (2 Bft) 97,83 %
24.03.2022 12:34 17,2 C 20,0 C 15,6 C 46 % 1029,6 hPa 0,0 l/m 2 min 0 min 686 W/m 9,7 km/h (2 Bft) 97,87 %
24.03.2022 12:36 17,3 C 21,1 C 15,6 C 46 % 1029,6 hPa 0,0 l/m 2 min 0 min 689 W/m 6,4 km/h (2 Bft) 97,87 %
24.03.2022 12:38 17,4 C 21,7 C 15,6 C 46 % 1029,6 hPa 0,0 l/m 2 min 0 min 692 W/m 6,4 km/h (2 Bft) 100,00 %
24.03.2022 12:40 17,5 C 21,7 C 15,0 C 44 % 1029,6 hPa 0,0 l/m 2 min 0 min 692 W/m 6,4 km/h (2 Bft) 100,00 %
24.03.2022 12:42 17,6 C 22,2 C 15,0 C 45 % 1029,6 hPa 0,0 l/m 2 min 0 min 689 W/m 6,4 km/h (2 Bft) 100,00 %
24.03.2022 12:44 17,7 C 22,8 C 15,0 C 45 % 1029,5 hPa 0,0 l/m 2 min 0 min 687 W/m 9,7 km/h (2 Bft) 100,00 %
24.03.2022 12:46 17,7 C 22,8 C 14,4 C 45 % 1029,6 hPa 0,0 l/m 2 min 0 min 687 W/m 12,9 km/h (3 Bft) 100,00 %
24.03.2022 12:48 17,7 C 23,3 C 14,4 C 44 % 1029,5 hPa 0,0 l/m 2 min 0 min 689 W/m 6,4 km/h (2 Bft) 100,00 %
24.03.2022 12:50 17,7 C 23,9 C 14,4 C 43 % 1029,5 hPa 0,0 l/m 2 min 0 min 691 W/m 6,4 km/h (2 Bft) 100,00 %
24.03.2022 12:52 17,8 C 23,9 C 14,4 C 43 % 1029,4 hPa 0,0 l/m 2 min 0 min 691 W/m 9,7 km/h (2 Bft) 100,00 %
24.03.2022 12:54 17,8 C 23,9 C 14,4 C 43 % 1029,5 hPa 0,0 l/m 2 min 0 min 691 W/m 9,7 km/h (2 Bft) 100,00 %
24.03.2022 12:56 17,8 C 23,9 C 13,9 C 44 % 1029,5 hPa 0,0 l/m 2 min 0 min 691 W/m 9,7 km/h (2 Bft) 100,00 %
24.03.2022 12:58 17,9 C 24,4 C 13,9 C 43 % 1029,4 hPa 0,0 l/m 2 min 0 min 689 W/m 9,7 km/h (2 Bft) 100,00 %
24.03.2022 13:00 18,0 C 24,4 C 13,9 C 44 % 1029,4 hPa 0,0 l/m 2 min 0 min 689 W/m 6,4 km/h (2 Bft) 100,00 %
24.03.2022 13:02 18,1 C 25,6 C 14,4 C 43 % 1029,4 hPa 0,0 l/m 2 min 0 min 689 W/m 6,4 km/h (2 Bft) 100,00 %
24.03.2022 13:04 18,3 C 25,6 C 14,4 C 44 % 1029,4 hPa 0,0 l/m 2 min 0 min 686 W/m 6,4 km/h (2 Bft) 100,00 %
24.03.2022 13:06 18,4 C 26,1 C 14,4 C 44 % 1029,3 hPa 0,0 l/m 2 min 0 min 683 W/m 9,7 km/h (2 Bft) 97,87 %
24.03.2022 13:08 18,6 C 26,1 C 14,4 C 42 % 1029,4 hPa 0,0 l/m 2 min 0 min 683 W/m 6,4 km/h (2 Bft) 100,00 %
24.03.2022 13:10 18,6 C 26,1 C 14,4 C 42 % 1029,3 hPa 0,0 l/m 2 min 0 min 687 W/m 9,7 km/h (2 Bft) 100,00 %
24.03.2022 13:12 18,7 C 25,6 C 13,9 C 42 % 1029,3 hPa 0,0 l/m 2 min 0 min 686 W/m 6,4 km/h (2 Bft) 100,00 %
24.03.2022 13:14 18,7 C 26,1 C 14,4 C 42 % 1029,2 hPa 0,0 l/m 2 min 0 min 685 W/m 3,2 km/h (1 Bft) 97,87 %
24.03.2022 13:16 18,8 C 26,7 C 14,4 C 43 % 1029,2 hPa 0,0 l/m 2 min 0 min 687 W/m 3,2 km/h (1 Bft) 100,00 %
24.03.2022 13:18 18,8 C 27,2 C 14,4 C 42 % 1029,2 hPa 0,0 l/m 2 min 0 min 687 W/m 6,4 km/h (2 Bft) 100,00 %
24.03.2022 13:20 18,7 C 26,7 C 13,9 C 41 % 1029,2 hPa 0,0 l/m 2 min 0 min 687 W/m 6,4 km/h (2 Bft) 95,65 %
24.03.2022 13:22 18,7 C 26,7 C 13,9 C 41 % 1029,2 hPa 0,0 l/m 2 min 0 min 684 W/m 6,4 km/h (2 Bft) 95,74 %
24.03.2022 13:24 18,8 C 27,8 C 14,4 C 42 % 1029,2 hPa 0,0 l/m 2 min 0 min 676 W/m 12,9 km/h (3 Bft) 97,87 %
24.03.2022 13:26 18,8 C 26,1 C 13,9 C 42 % 1029,1 hPa 0,0 l/m 2 min 0 min 673 W/m 22,5 km/h (4 Bft) 97,87 %
24.03.2022 13:28 18,9 C 26,1 C 13,9 C 42 % 1029,2 hPa 0,0 l/m 2 min 0 min 676 W/m 9,7 km/h (2 Bft) 97,87 %
24.03.2022 13:30 18,9 C 26,1 C 13,9 C 41 % 1029,1 hPa 0,0 l/m 2 min 0 min 671 W/m 12,9 km/h (3 Bft) 95,74 %
24.03.2022 13:32 19,0 C 27,2 C 13,9 C 41 % 1029,1 hPa 0,0 l/m 2 min 0 min 674 W/m 6,4 km/h (2 Bft) 95,65 %
24.03.2022 13:34 19,0 C 26,1 C 13,9 C 41 % 1029,0 hPa 0,0 l/m 2 min 0 min 681 W/m 12,9 km/h (3 Bft) 95,74 %
24.03.2022 13:36 18,9 C 26,1 C 13,9 C 42 % 1029,1 hPa 0,0 l/m 2 min 0 min 683 W/m 9,7 km/h (2 Bft) 91,49 %
24.03.2022 13:38 18,9 C 26,7 C 13,9 C 42 % 1029,0 hPa 0,0 l/m 2 min 0 min 673 W/m 12,9 km/h (3 Bft) 95,74 %
24.03.2022 13:40 18,9 C 26,1 C 13,9 C 41 % 1029,0 hPa 0,0 l/m 2 min 0 min 675 W/m 9,7 km/h (2 Bft) 95,74 %
24.03.2022 13:42 18,9 C 25,0 C 13,9 C 41 % 1029,0 hPa 0,0 l/m 2 min 0 min 676 W/m 9,7 km/h (2 Bft) 95,74 %
24.03.2022 13:44 18,7 C 25,0 C 13,9 C 41 % 1029,0 hPa 0,0 l/m 2 min 0 min 673 W/m 16,1 km/h (3 Bft) 93,48 %
24.03.2022 13:46 18,7 C 25,6 C 13,9 C 41 % 1029,0 hPa 0,0 l/m 2 min 0 min 667 W/m 9,7 km/h (2 Bft) 95,74 %
24.03.2022 13:48 18,7 C 25,6 C 13,9 C 40 % 1029,0 hPa 0,0 l/m 2 min 0 min 667 W/m 9,7 km/h (2 Bft) 95,74 %
24.03.2022 13:50 18,7 C 26,7 C 13,9 C 41 % 1028,9 hPa 0,0 l/m 2 min 0 min 668 W/m 6,4 km/h (2 Bft) 95,74 %
24.03.2022 13:52 18,8 C 26,1 C 13,9 C 40 % 1029,0 hPa 0,0 l/m 2 min 0 min 666 W/m 9,7 km/h (2 Bft) 93,62 %
24.03.2022 13:54 18,9 C 26,1 C 14,4 C 40 % 1028,9 hPa 0,0 l/m 2 min 0 min 664 W/m 9,7 km/h (2 Bft) 93,62 %
24.03.2022 13:56 18,9 C 26,1 C 13,9 C 40 % 1029,0 hPa 0,0 l/m 2 min 0 min 667 W/m 9,7 km/h (2 Bft) 95,65 %
24.03.2022 13:58 19,0 C 26,1 C 13,9 C 39 % 1028,9 hPa 0,0 l/m 2 min 0 min 667 W/m 12,9 km/h (3 Bft) 95,74 %
24.03.2022 14:00 19,0 C 25,6 C 13,9 C 38 % 1028,9 hPa 0,0 l/m 2 min 0 min 655 W/m 6,4 km/h (2 Bft) 93,62 %
24.03.2022 14:02 18,9 C 25,0 C 13,9 C 38 % 1028,9 hPa 0,0 l/m 2 min 0 min 649 W/m 6,4 km/h (2 Bft) 95,74 %
24.03.2022 14:04 18,9 C 25,0 C 13,9 C 38 % 1028,9 hPa 0,0 l/m 2 min 0 min 645 W/m 9,7 km/h (2 Bft) 97,87 %
24.03.2022 14:06 18,9 C 25,0 C 13,9 C 38 % 1028,8 hPa 0,0 l/m 2 min 0 min 647 W/m 9,7 km/h (2 Bft) 95,65 %
24.03.2022 14:08 18,9 C 25,6 C 13,9 C 38 % 1028,8 hPa 0,0 l/m 2 min 0 min 646 W/m 6,4 km/h (2 Bft) 93,62 %
24.03.2022 14:10 18,9 C 25,6 C 13,9 C 39 % 1028,8 hPa 0,0 l/m 2 min 0 min 642 W/m 9,7 km/h (2 Bft) 95,74 %
24.03.2022 14:12 18,9 C 25,6 C 14,4 C 40 % 1028,8 hPa 0,0 l/m 2 min 0 min 640 W/m 12,9 km/h (3 Bft) 93,62 %
24.03.2022 14:14 18,9 C 24,4 C 13,9 C 39 % 1028,8 hPa 0,0 l/m 2 min 0 min 636 W/m 12,9 km/h (3 Bft) 93,62 %
24.03.2022 14:16 18,9 C 24,4 C 13,9 C 40 % 1028,8 hPa 0,0 l/m 2 min 0 min 633 W/m 6,4 km/h (2 Bft) 95,74 %
24.03.2022 14:18 18,8 C 24,4 C 13,9 C 39 % 1028,8 hPa 0,0 l/m 2 min 0 min 629 W/m 9,7 km/h (2 Bft) 95,65 %
24.03.2022 14:20 18,7 C 25,0 C 13,9 C 39 % 1028,8 hPa 0,0 l/m 2 min 0 min 622 W/m 9,7 km/h (2 Bft) 95,74 %
24.03.2022 14:22 18,8 C 25,0 C 13,9 C 41 % 1028,8 hPa 0,0 l/m 2 min 0 min 619 W/m 9,7 km/h (2 Bft) 95,83 %
24.03.2022 14:24 18,8 C 24,4 C 13,9 C 40 % 1028,7 hPa 0,0 l/m 2 min 0 min 612 W/m 6,4 km/h (2 Bft) 95,74 %
24.03.2022 14:26 18,7 C 23,9 C 13,9 C 39 % 1028,8 hPa 0,0 l/m 2 min 0 min 606 W/m 6,4 km/h (2 Bft) 95,74 %
24.03.2022 14:28 18,7 C 24,4 C 13,9 C 39 % 1028,7 hPa 0,0 l/m 2 min 0 min 600 W/m 9,7 km/h (2 Bft) 95,74 %
24.03.2022 14:30 18,7 C 24,4 C 13,9 C 39 % 1028,8 hPa 0,0 l/m 2 min 0 min 601 W/m 9,7 km/h (2 Bft) 95,74 %
24.03.2022 14:32 18,7 C 23,9 C 13,3 C 39 % 1028,8 hPa 0,0 l/m 2 min 0 min 596 W/m 9,7 km/h (2 Bft) 93,48 %
24.03.2022 14:34 18,6 C 23,9 C 13,9 C 40 % 1028,7 hPa 0,0 l/m 2 min 0 min 592 W/m 9,7 km/h (2 Bft) 97,87 %
24.03.2022 14:36 18,7 C 24,4 C 13,9 C 39 % 1028,8 hPa 0,0 l/m 2 min 0 min 589 W/m 6,4 km/h (2 Bft) 97,87 %
24.03.2022 14:38 18,7 C 24,4 C 13,9 C 39 % 1028,7 hPa 0,0 l/m 2 min 0 min 590 W/m 6,4 km/h (2 Bft) 97,87 %
24.03.2022 14:40 18,7 C 24,4 C 13,9 C 38 % 1028,7 hPa 0,0 l/m 2 min 0 min 590 W/m 9,7 km/h (2 Bft) 97,87 %
24.03.2022 14:42 18,7 C 24,4 C 13,9 C 38 % 1028,6 hPa 0,0 l/m 2 min 0 min 590 W/m 6,4 km/h (2 Bft) 95,65 %
24.03.2022 14:44 18,7 C 24,4 C 13,9 C 38 % 1028,6 hPa 0,0 l/m 2 min 0 min 588 W/m 9,7 km/h (2 Bft) 97,87 %
24.03.2022 14:46 18,7 C 24,4 C 13,9 C 39 % 1028,6 hPa 0,0 l/m 2 min 0 min 588 W/m 16,1 km/h (3 Bft) 97,87 %
24.03.2022 14:48 18,8 C 25,6 C 13,9 C 38 % 1028,6 hPa 0,0 l/m 2 min 0 min 582 W/m 9,7 km/h (2 Bft) 100,00 %
24.03.2022 14:50 18,8 C 25,6 C 13,9 C 38 % 1028,6 hPa 0,0 l/m 2 min 0 min 575 W/m 9,7 km/h (2 Bft) 100,00 %
24.03.2022 14:52 18,9 C 26,1 C 14,4 C 38 % 1028,6 hPa 0,0 l/m 2 min 0 min 567 W/m 6,4 km/h (2 Bft) 100,00 %
24.03.2022 14:54 18,9 C 25,0 C 14,4 C 38 % 1028,6 hPa 0,0 l/m 2 min 0 min 564 W/m 6,4 km/h (2 Bft) 97,83 %
24.03.2022 14:56 18,9 C 25,0 C 13,9 C 37 % 1028,6 hPa 0,0 l/m 2 min 0 min 561 W/m 12,9 km/h (3 Bft) 100,00 %
24.03.2022 14:58 19,0 C 25,0 C 14,4 C 37 % 1028,6 hPa 0,0 l/m 2 min 0 min 559 W/m 12,9 km/h (3 Bft) 100,00 %
24.03.2022 15:00 19,1 C 26,1 C 14,4 C 37 % 1028,6 hPa 0,0 l/m 2 min 0 min 556 W/m 12,9 km/h (3 Bft) 100,00 %
24.03.2022 15:02 19,1 C 26,1 C 14,4 C 37 % 1028,5 hPa 0,0 l/m 2 min 0 min 555 W/m 6,4 km/h (2 Bft) 100,00 %
24.03.2022 15:04 19,2 C 26,1 C 14,4 C 37 % 1028,5 hPa 0,0 l/m 2 min 0 min 545 W/m 9,7 km/h (2 Bft) 100,00 %
24.03.2022 15:06 19,2 C 26,1 C 14,4 C 36 % 1028,5 hPa 0,0 l/m 2 min 0 min 542 W/m 6,4 km/h (2 Bft) 100,00 %
24.03.2022 15:08 19,2 C 27,2 C 14,4 C 37 % 1028,4 hPa 0,0 l/m 2 min 0 min 538 W/m 9,7 km/h (2 Bft) 100,00 %
24.03.2022 15:10 19,1 C 27,2 C 14,4 C 36 % 1028,5 hPa 0,0 l/m 2 min 0 min 533 W/m 9,7 km/h (2 Bft) 100,00 %
24.03.2022 15:12 19,1 C 27,8 C 14,4 C 37 % 1028,4 hPa 0,0 l/m 2 min 0 min 533 W/m 6,4 km/h (2 Bft) 100,00 %
24.03.2022 15:14 19,2 C 27,8 C 14,4 C 37 % 1028,4 hPa 0,0 l/m 2 min 0 min 532 W/m 9,7 km/h (2 Bft) 100,00 %
24.03.2022 15:16 19,2 C 27,2 C 14,4 C 37 % 1028,4 hPa 0,0 l/m 2 min 0 min 527 W/m 6,4 km/h (2 Bft) 100,00 %
24.03.2022 15:18 19,1 C 26,1 C 14,4 C 37 % 1028,4 hPa 0,0 l/m 2 min 0 min 522 W/m 12,9 km/h (3 Bft) 100,00 %
24.03.2022 15:20 18,9 C 25,0 C 13,9 C 38 % 1028,4 hPa 0,0 l/m 2 min 0 min 516 W/m 9,7 km/h (2 Bft) 100,00 %
24.03.2022 15:22 18,9 C 25,6 C 13,9 C 38 % 1028,4 hPa 0,0 l/m 2 min 0 min 508 W/m 6,4 km/h (2 Bft) 97,87 %
24.03.2022 15:24 18,8 C 25,6 C 13,9 C 38 % 1028,4 hPa 0,0 l/m 2 min 0 min 504 W/m 6,4 km/h (2 Bft) 100,00 %
24.03.2022 15:26 18,8 C 26,1 C 13,9 C 37 % 1028,3 hPa 0,0 l/m 2 min 0 min 499 W/m 6,4 km/h (2 Bft) 97,87 %
24.03.2022 15:28 18,8 C 26,1 C 13,9 C 37 % 1028,3 hPa 0,0 l/m 2 min 0 min 495 W/m 3,2 km/h (1 Bft) 100,00 %
24.03.2022 15:30 18,8 C 26,7 C 13,9 C 36 % 1028,3 hPa 0,0 l/m 2 min 0 min 493 W/m 3,2 km/h (1 Bft) 100,00 %
24.03.2022 15:32 18,8 C 26,7 C 13,9 C 36 % 1028,3 hPa 0,0 l/m 2 min 0 min 492 W/m 6,4 km/h (2 Bft) 100,00 %
24.03.2022 15:34 18,9 C 27,2 C 14,4 C 37 % 1028,2 hPa 0,0 l/m 2 min 0 min 491 W/m 12,9 km/h (3 Bft) 97,87 %
24.03.2022 15:36 19,0 C 27,2 C 14,4 C 37 % 1028,2 hPa 0,0 l/m 2 min 0 min 490 W/m 12,9 km/h (3 Bft) 100,00 %
24.03.2022 15:38 19,1 C 27,2 C 14,4 C 36 % 1028,2 hPa 0,0 l/m 2 min 0 min 485 W/m 9,7 km/h (2 Bft) 100,00 %
24.03.2022 15:40 19,2 C 27,2 C 14,4 C 37 % 1028,2 hPa 0,0 l/m 2 min 0 min 478 W/m 9,7 km/h (2 Bft) 100,00 %
24.03.2022 15:42 19,2 C 26,7 C 14,4 C 36 % 1028,2 hPa 0,0 l/m 2 min 0 min 473 W/m 9,7 km/h (2 Bft) 100,00 %
24.03.2022 15:44 19,2 C 26,7 C 15,0 C 36 % 1028,2 hPa 0,0 l/m 2 min 0 min 468 W/m 12,9 km/h (3 Bft) 100,00 %
24.03.2022 15:46 19,3 C 26,7 C 14,4 C 35 % 1028,2 hPa 0,0 l/m 2 min 0 min 461 W/m 12,9 km/h (3 Bft) 100,00 %
24.03.2022 15:48 19,3 C 27,2 C 15,0 C 36 % 1028,2 hPa 0,0 l/m 2 min 0 min 456 W/m 12,9 km/h (3 Bft) 100,00 %
24.03.2022 15:50 19,3 C 26,7 C 14,4 C 36 % 1028,1 hPa 0,0 l/m 2 min 0 min 449 W/m 12,9 km/h (3 Bft) 100,00 %
24.03.2022 15:52 19,3 C 26,1 C 14,4 C 36 % 1028,1 hPa 0,0 l/m 2 min 0 min 446 W/m 9,7 km/h (2 Bft) 100,00 %
24.03.2022 15:54 19,2 C 25,6 C 14,4 C 36 % 1028,1 hPa 0,0 l/m 2 min 0 min 444 W/m 6,4 km/h (2 Bft) 93,62 %
24.03.2022 15:56 19,1 C 26,1 C 14,4 C 35 % 1028,1 hPa 0,0 l/m 2 min 0 min 442 W/m 6,4 km/h (2 Bft) 97,87 %
24.03.2022 15:58 19,0 C 26,1 C 13,9 C 35 % 1028,1 hPa 0,0 l/m 2 min 0 min 436 W/m 9,7 km/h (2 Bft) 97,87 %
24.03.2022 16:00 18,9 C 25,6 C 13,9 C 36 % 1028,1 hPa 0,0 l/m 2 min 0 min 431 W/m 6,4 km/h (2 Bft) 97,87 %
24.03.2022 16:02 18,9 C 25,6 C 13,9 C 36 % 1028,0 hPa 0,0 l/m 2 min 0 min 430 W/m 6,4 km/h (2 Bft) 97,87 %
24.03.2022 16:04 18,9 C 26,1 C 13,9 C 36 % 1028,0 hPa 0,0 l/m 2 min 0 min 424 W/m 3,2 km/h (1 Bft) 97,83 %
24.03.2022 16:06 19,1 C 26,7 C 13,9 C 37 % 1028,0 hPa 0,0 l/m 2 min 0 min 418 W/m 6,4 km/h (2 Bft) 97,87 %
24.03.2022 16:08 19,2 C 26,1 C 13,9 C 37 % 1028,0 hPa 0,0 l/m 2 min 0 min 408 W/m 6,4 km/h (2 Bft) 97,87 %
24.03.2022 16:10 19,3 C 26,1 C 13,9 C 36 % 1028,0 hPa 0,0 l/m 2 min 0 min 401 W/m 6,4 km/h (2 Bft) 95,74 %
24.03.2022 16:12 19,4 C 25,6 C 13,9 C 35 % 1027,9 hPa 0,0 l/m 2 min 0 min 395 W/m 6,4 km/h (2 Bft) 97,87 %
24.03.2022 16:14 19,5 C 26,1 C 13,9 C 35 % 1027,9 hPa 0,0 l/m 2 min 0 min 387 W/m 6,4 km/h (2 Bft) 97,87 %
24.03.2022 16:16 19,6 C 26,1 C 13,9 C 36 % 1027,9 hPa 0,0 l/m 2 min 0 min 382 W/m 9,7 km/h (2 Bft) 95,65 %
24.03.2022 16:18 19,6 C 25,6 C 13,9 C 36 % 1027,9 hPa 0,0 l/m 2 min 0 min 378 W/m 9,7 km/h (2 Bft) 97,87 %
24.03.2022 16:20 19,7 C 25,0 C 13,3 C 36 % 1027,9 hPa 0,0 l/m 2 min 0 min 374 W/m 6,4 km/h (2 Bft) 97,87 %
24.03.2022 16:22 19,8 C 26,1 C 13,3 C 36 % 1027,9 hPa 0,0 l/m 2 min 0 min 369 W/m 6,4 km/h (2 Bft) 95,74 %
24.03.2022 16:24 19,8 C 26,7 C 13,3 C 35 % 1027,8 hPa 0,0 l/m 2 min 0 min 362 W/m 12,9 km/h (3 Bft) 97,87 %
24.03.2022 16:26 19,8 C 25,6 C 13,3 C 36 % 1027,9 hPa 0,0 l/m 2 min 0 min 355 W/m 12,9 km/h (3 Bft) 97,87 %
24.03.2022 16:28 19,8 C 25,0 C 13,3 C 36 % 1027,9 hPa 0,0 l/m 2 min 0 min 346 W/m 6,4 km/h (2 Bft) 95,65 %
24.03.2022 16:30 19,7 C 25,6 C 13,3 C 35 % 1027,9 hPa 0,0 l/m 2 min 0 min 338 W/m 9,7 km/h (2 Bft) 97,87 %
24.03.2022 16:32 19,7 C 25,0 C 13,3 C 35 % 1027,9 hPa 0,0 l/m 2 min 0 min 331 W/m 6,4 km/h (2 Bft) 95,74 %
24.03.2022 16:34 19,7 C 24,4 C 13,3 C 36 % 1027,8 hPa 0,0 l/m 2 min 0 min 326 W/m 6,4 km/h (2 Bft) 97,87 %
24.03.2022 16:36 19,7 C 24,4 C 13,3 C 38 % 1027,8 hPa 0,0 l/m 2 min 0 min 322 W/m 12,9 km/h (3 Bft) 97,87 %
24.03.2022 16:38 19,7 C 24,4 C 13,3 C 37 % 1027,8 hPa 0,0 l/m 2 min 0 min 316 W/m 12,9 km/h (3 Bft) 97,87 %
24.03.2022 16:40 19,6 C 23,9 C 13,3 C 38 % 1027,8 hPa 0,0 l/m 2 min 0 min 311 W/m 9,7 km/h (2 Bft) 97,83 %
24.03.2022 16:42 19,6 C 24,4 C 13,3 C 37 % 1027,8 hPa 0,0 l/m 2 min 0 min 303 W/m 12,9 km/h (3 Bft) 97,87 %
24.03.2022 16:44 19,5 C 23,9 C 13,3 C 37 % 1027,8 hPa 0,0 l/m 2 min 0 min 296 W/m 12,9 km/h (3 Bft) 97,87 %
24.03.2022 16:46 19,6 C 23,9 C 13,3 C 37 % 1027,8 hPa 0,0 l/m 2 min 0 min 291 W/m 9,7 km/h (2 Bft) 95,74 %
24.03.2022 16:48 19,5 C 23,9 C 13,3 C 37 % 1027,8 hPa 0,0 l/m 2 min 0 min 284 W/m 3,2 km/h (1 Bft) 95,74 %
24.03.2022 16:50 19,4 C 23,3 C 13,3 C 37 % 1027,8 hPa 0,0 l/m 2 min 0 min 276 W/m 6,4 km/h (2 Bft) 97,87 %
24.03.2022 16:52 19,4 C 23,3 C 13,3 C 37 % 1027,8 hPa 0,0 l/m 2 min 0 min 270 W/m 3,2 km/h (1 Bft) 95,65 %
24.03.2022 16:54 19,4 C 23,3 C 12,8 C 38 % 1027,8 hPa 0,0 l/m 2 min 0 min 266 W/m 9,7 km/h (2 Bft) 97,87 %
24.03.2022 16:56 19,3 C 22,8 C 12,8 C 38 % 1027,8 hPa 0,0 l/m 2 min 0 min 261 W/m 9,7 km/h (2 Bft) 97,87 %
24.03.2022 16:58 19,3 C 22,8 C 12,8 C 37 % 1027,8 hPa 0,0 l/m 2 min 0 min 257 W/m 3,2 km/h (1 Bft) 93,62 %
24.03.2022 17:00 19,2 C 22,2 C 12,8 C 37 % 1027,8 hPa 0,0 l/m 2 min 0 min 252 W/m 6,4 km/h (2 Bft) 93,62 %
24.03.2022 17:02 19,2 C 22,2 C 12,8 C 38 % 1027,8 hPa 0,0 l/m 2 min 0 min 244 W/m 6,4 km/h (2 Bft) 97,87 %
24.03.2022 17:04 19,1 C 22,2 C 12,8 C 37 % 1027,9 hPa 0,0 l/m 2 min 0 min 234 W/m 9,7 km/h (2 Bft) 97,83 %
24.03.2022 17:06 19,1 C 22,2 C 12,8 C 37 % 1027,8 hPa 0,0 l/m 2 min 0 min 226 W/m 6,4 km/h (2 Bft) 95,74 %
24.03.2022 17:08 19,1 C 21,7 C 12,8 C 37 % 1027,8 hPa 0,0 l/m 2 min 0 min 217 W/m 6,4 km/h (2 Bft) 95,74 %
24.03.2022 17:10 19,1 C 21,1 C 12,8 C 37 % 1027,8 hPa 0,0 l/m 2 min 0 min 210 W/m 9,7 km/h (2 Bft) 95,74 %
24.03.2022 17:12 19,1 C 21,1 C 12,8 C 37 % 1027,8 hPa 0,0 l/m 2 min 0 min 203 W/m 6,4 km/h (2 Bft) 95,74 %
24.03.2022 17:14 19,1 C 20,6 C 12,8 C 36 % 1027,8 hPa 0,0 l/m 2 min 0 min 197 W/m 6,4 km/h (2 Bft) 97,78 %
24.03.2022 17:16 19,1 C 20,6 C 12,8 C 37 % 1027,7 hPa 0,0 l/m 2 min 0 min 191 W/m 6,4 km/h (2 Bft) 95,74 %
24.03.2022 17:18 19,0 C 20,6 C 12,8 C 37 % 1027,8 hPa 0,0 l/m 2 min 0 min 184 W/m 3,2 km/h (1 Bft) 95,74 %
24.03.2022 17:20 19,0 C 20,6 C 12,8 C 38 % 1027,8 hPa 0,0 l/m 2 min 0 min 178 W/m 6,4 km/h (2 Bft) 93,62 %
24.03.2022 17:22 18,9 C 21,1 C 12,8 C 37 % 1027,8 hPa 0,0 l/m 2 min 0 min 170 W/m 6,4 km/h (2 Bft) 97,87 %
24.03.2022 17:24 18,8 C 21,1 C 12,8 C 37 % 1027,8 hPa 0,0 l/m 2 min 0 min 165 W/m 3,2 km/h (1 Bft) 97,87 %
24.03.2022 17:26 18,8 C 21,1 C 12,8 C 37 % 1027,8 hPa 0,0 l/m 2 min 0 min 158 W/m 3,2 km/h (1 Bft) 95,65 %
24.03.2022 17:28 18,7 C 21,1 C 12,8 C 38 % 1027,8 hPa 0,0 l/m 2 min 0 min 149 W/m 6,4 km/h (2 Bft) 97,87 %
24.03.2022 17:30 18,7 C 21,1 C 12,8 C 39 % 1027,8 hPa 0,0 l/m 2 min 0 min 142 W/m 3,2 km/h (1 Bft) 97,87 %
24.03.2022 17:32 18,7 C 21,1 C 12,8 C 39 % 1027,8 hPa 0,0 l/m 2 min 0 min 135 W/m 9,7 km/h (2 Bft) 95,74 %
24.03.2022 17:34 18,7 C 21,1 C 12,8 C 40 % 1027,8 hPa 0,0 l/m 2 min 0 min 126 W/m 3,2 km/h (1 Bft) 95,74 %
24.03.2022 17:36 18,6 C 20,6 C 12,8 C 40 % 1027,8 hPa 0,0 l/m 2 min 0 min 120 W/m 6,4 km/h (2 Bft) 97,87 %
24.03.2022 17:38 18,6 C 20,0 C 12,8 C 40 % 1027,8 hPa 0,0 l/m 2 min 0 min 115 W/m 3,2 km/h (1 Bft) 97,83 %
24.03.2022 17:40 18,6 C 20,0 C 12,8 C 41 % 1027,8 hPa 0,0 l/m 2 min 0 min 110 W/m 3,2 km/h (1 Bft) 97,87 %
24.03.2022 17:42 18,6 C 20,0 C 12,8 C 41 % 1027,8 hPa 0,0 l/m 2 min 0 min 105 W/m 6,4 km/h (2 Bft) 95,74 %
24.03.2022 17:44 18,5 C 19,4 C 12,8 C 41 % 1027,8 hPa 0,0 l/m 2 min 0 min 100 W/m 6,4 km/h (2 Bft) 97,87 %
24.03.2022 17:46 18,5 C 19,4 C 12,8 C 41 % 1027,8 hPa 0,0 l/m 2 min 0 min 95 W/m 12,9 km/h (3 Bft) 97,87 %
24.03.2022 17:48 18,4 C 18,9 C 12,8 C 42 % 1027,8 hPa 0,0 l/m 2 min 0 min 90 W/m 6,4 km/h (2 Bft) 97,87 %
24.03.2022 17:50 18,4 C 18,9 C 12,8 C 42 % 1027,8 hPa 0,0 l/m 2 min 0 min 85 W/m 12,9 km/h (3 Bft) 97,83 %
24.03.2022 17:52 18,3 C 18,9 C 12,8 C 41 % 1027,9 hPa 0,0 l/m 2 min 0 min 82 W/m 6,4 km/h (2 Bft) 97,87 %
24.03.2022 17:54 18,2 C 18,3 C 12,8 C 41 % 1027,9 hPa 0,0 l/m 2 min 0 min 77 W/m 9,7 km/h (2 Bft) 97,87 %
24.03.2022 17:56 18,2 C 18,3 C 12,2 C 41 % 1027,9 hPa 0,0 l/m 2 min 0 min 73 W/m 16,1 km/h (3 Bft) 97,87 %
24.03.2022 17:58 18,1 C 17,8 C 12,2 C 41 % 1027,9 hPa 0,0 l/m 2 min 0 min 69 W/m 9,7 km/h (2 Bft) 100,00 %
24.03.2022 18:00 18,0 C 17,2 C 12,2 C 43 % 1027,9 hPa 0,0 l/m 2 min 0 min 66 W/m 9,7 km/h (2 Bft) 100,00 %
24.03.2022 18:02 17,9 C 16,7 C 12,2 C 42 % 1027,9 hPa 0,0 l/m 0 min 0 min 62 W/m 6,4 km/h (2 Bft) 100,00 %
24.03.2022 18:04 17,9 C 16,7 C 12,2 C 42 % 1027,9 hPa 0,0 l/m 0 min 0 min 55 W/m 9,7 km/h (2 Bft) 97,87 %
24.03.2022 18:08 17,8 C 16,1 C 11,7 C 43 % 1027,9 hPa 0,0 l/m 0 min 0 min 44 W/m 9,7 km/h (2 Bft) 100,00 %
24.03.2022 18:10 17,7 C 16,1 C 11,7 C 43 % 1028,0 hPa 0,0 l/m 0 min 0 min 40 W/m 6,4 km/h (2 Bft) 100,00 %
24.03.2022 18:12 17,6 C 16,1 C 11,7 C 43 % 1027,9 hPa 0,0 l/m 0 min 0 min 38 W/m 6,4 km/h (2 Bft) 100,00 %
24.03.2022 18:14 17,4 C 15,6 C 11,7 C 43 % 1028,0 hPa 0,0 l/m 0 min 0 min 36 W/m 9,7 km/h (2 Bft) 100,00 %
24.03.2022 18:16 17,3 C 15,6 C 11,1 C 43 % 1027,9 hPa 0,0 l/m 0 min 0 min 34 W/m 6,4 km/h (2 Bft) 100,00 %
24.03.2022 18:18 17,2 C 15,6 C 11,1 C 44 % 1027,9 hPa 0,0 l/m 0 min 0 min 33 W/m 3,2 km/h (1 Bft) 97,87 %
24.03.2022 18:20 17,2 C 15,6 C 11,1 C 44 % 1027,9 hPa 0,0 l/m 0 min 0 min 31 W/m 3,2 km/h (1 Bft) 97,87 %
24.03.2022 18:22 17,1 C 15,6 C 10,6 C 44 % 1027,9 hPa 0,0 l/m 0 min 0 min 29 W/m 0,0 km/h (0 Bft) 97,87 %
24.03.2022 18:24 17,1 C 15,0 C 10,6 C 45 % 1027,9 hPa 0,0 l/m 0 min 0 min 26 W/m 3,2 km/h (1 Bft) 100,00 %
24.03.2022 18:26 16,9 C 15,0 C 10,6 C 45 % 1027,9 hPa 0,0 l/m 0 min 0 min 25 W/m 6,4 km/h (2 Bft) 100,00 %
24.03.2022 18:28 16,8 C 15,0 C 10,6 C 45 % 1028,0 hPa 0,0 l/m 0 min 0 min 24 W/m 6,4 km/h (2 Bft) 100,00 %
24.03.2022 18:30 16,8 C 15,0 C 10,6 C 45 % 1028,0 hPa 0,0 l/m 0 min 0 min 21 W/m 3,2 km/h (1 Bft) 97,87 %
24.03.2022 18:32 16,7 C 14,4 C 10,6 C 45 % 1028,0 hPa 0,0 l/m 0 min 0 min 20 W/m 3,2 km/h (1 Bft) 97,87 %
24.03.2022 18:34 16,6 C 14,4 C 10,6 C 45 % 1028,0 hPa 0,0 l/m 0 min 0 min 18 W/m 6,4 km/h (2 Bft) 97,87 %
24.03.2022 18:36 16,6 C 14,4 C 10,0 C 46 % 1028,0 hPa 0,0 l/m 0 min 0 min 16 W/m 3,2 km/h (1 Bft) 97,87 %
24.03.2022 18:38 16,5 C 14,4 C 10,0 C 45 % 1028,1 hPa 0,0 l/m 0 min 0 min 15 W/m 6,4 km/h (2 Bft) 97,83 %
24.03.2022 18:40 16,4 C 14,4 C 10,0 C 46 % 1028,1 hPa 0,0 l/m 0 min 0 min 13 W/m 6,4 km/h (2 Bft) 97,87 %
24.03.2022 18:42 16,3 C 14,4 C 10,0 C 46 % 1028,1 hPa 0,0 l/m 0 min 0 min 12 W/m 6,4 km/h (2 Bft) 97,87 %
24.03.2022 18:44 16,3 C 14,4 C 9,4 C 46 % 1028,1 hPa 0,0 l/m 0 min 0 min 11 W/m 3,2 km/h (1 Bft) 97,87 %
24.03.2022 18:46 16,2 C 13,9 C 9,4 C 46 % 1028,1 hPa 0,0 l/m 0 min 0 min 10 W/m 6,4 km/h (2 Bft) 95,74 %
24.03.2022 18:48 16,1 C 13,9 C 9,4 C 47 % 1028,2 hPa 0,0 l/m 0 min 0 min 8 W/m 3,2 km/h (1 Bft) 97,87 %
24.03.2022 18:50 16,1 C 13,9 C 9,4 C 47 % 1028,2 hPa 0,0 l/m 0 min 0 min 7 W/m 6,4 km/h (2 Bft) 97,83 %
24.03.2022 18:52 15,9 C 13,9 C 9,4 C 46 % 1028,2 hPa 0,0 l/m 0 min 0 min 5 W/m 3,2 km/h (1 Bft) 97,87 %
24.03.2022 18:54 15,9 C 13,9 C 9,4 C 47 % 1028,2 hPa 0,0 l/m 0 min 0 min 5 W/m 3,2 km/h (1 Bft) 95,74 %
24.03.2022 18:56 15,8 C 13,3 C 8,9 C 47 % 1028,2 hPa 0,0 l/m 0 min 0 min 0 W/m 3,2 km/h (1 Bft) 95,74 %
24.03.2022 18:58 15,7 C 13,3 C 8,9 C 47 % 1028,2 hPa 0,0 l/m 0 min 0 min 0 W/m 6,4 km/h (2 Bft) 95,74 %
24.03.2022 19:00 15,7 C 13,3 C 8,9 C 47 % 1028,2 hPa 0,0 l/m 0 min 0 min 0 W/m 3,2 km/h (1 Bft) 97,83 %
24.03.2022 19:02 15,6 C 13,3 C 8,9 C 47 % 1028,2 hPa 0,0 l/m 0 min 0 min 0 W/m 3,2 km/h (1 Bft) 94,74 %
24.03.2022 19:04 15,5 C 13,3 C 8,9 C 48 % 1028,2 hPa 0,0 l/m 0 min 0 min 0 W/m 3,2 km/h (1 Bft) 95,65 %
24.03.2022 19:06 15,4 C 12,8 C 8,9 C 48 % 1028,3 hPa 0,0 l/m 0 min 0 min 0 W/m 6,4 km/h (2 Bft) 95,74 %
24.03.2022 19:08 15,3 C 12,8 C 8,9 C 48 % 1028,3 hPa 0,0 l/m 0 min 0 min 0 W/m 6,4 km/h (2 Bft) 93,62 %
24.03.2022 19:10 15,2 C 12,8 C 8,9 C 49 % 1028,3 hPa 0,0 l/m 0 min 0 min 0 W/m 6,4 km/h (2 Bft) 95,74 %
24.03.2022 19:12 15,2 C 12,8 C 8,9 C 48 % 1028,2 hPa 0,0 l/m 0 min 0 min 0 W/m 6,4 km/h (2 Bft) 95,74 %
24.03.2022 19:14 15,1 C 12,8 C 8,3 C 48 % 1028,3 hPa 0,0 l/m 0 min 0 min 0 W/m 3,2 km/h (1 Bft) 95,74 %
24.03.2022 19:16 15,0 C 12,8 C 8,3 C 49 % 1028,3 hPa 0,0 l/m 0 min 0 min 0 W/m 3,2 km/h (1 Bft) 93,48 %
24.03.2022 19:18 14,9 C 12,8 C 8,3 C 49 % 1028,3 hPa 0,0 l/m 0 min 0 min 0 W/m 3,2 km/h (1 Bft) 95,74 %
24.03.2022 19:20 14,8 C 12,8 C 8,3 C 49 % 1028,3 hPa 0,0 l/m 0 min 0 min 0 W/m 3,2 km/h (1 Bft) 95,74 %
24.03.2022 19:22 14,8 C 12,8 C 8,3 C 50 % 1028,3 hPa 0,0 l/m 0 min 0 min 0 W/m 3,2 km/h (1 Bft) 97,87 %
24.03.2022 19:24 14,7 C 12,2 C 8,3 C 50 % 1028,3 hPa 0,0 l/m 0 min 0 min 0 W/m 6,4 km/h (2 Bft) 95,74 %
24.03.2022 19:26 14,6 C 12,2 C 7,8 C 50 % 1028,4 hPa 0,0 l/m 0 min 0 min 0 W/m 0,0 km/h (0 Bft) 97,87 %
24.03.2022 19:28 14,6 C 12,2 C 7,8 C 51 % 1028,3 hPa 0,0 l/m 0 min 0 min 0 W/m 3,2 km/h (1 Bft) 100,00 %
24.03.2022 19:30 14,4 C 12,2 C 7,8 C 51 % 1028,4 hPa 0,0 l/m 0 min 0 min 0 W/m 6,4 km/h (2 Bft) 100,00 %
24.03.2022 19:32 14,3 C 12,2 C 7,8 C 51 % 1028,4 hPa 0,0 l/m 0 min 0 min 0 W/m 3,2 km/h (1 Bft) 100,00 %
24.03.2022 19:34 14,3 C 12,2 C 7,8 C 51 % 1028,4 hPa 0,0 l/m 0 min 0 min 0 W/m 6,4 km/h (2 Bft) 95,74 %
24.03.2022 19:36 14,3 C 12,2 C 7,8 C 52 % 1028,4 hPa 0,0 l/m 0 min 0 min 0 W/m 0,0 km/h (0 Bft) 94,83 %
24.03.2022 19:38 14,2 C 12,2 C 7,8 C 51 % 1028,4 hPa 0,0 l/m 0 min 0 min 0 W/m 6,4 km/h (2 Bft) 97,87 %
24.03.2022 19:40 14,1 C 12,2 C 7,8 C 51 % 1028,4 hPa 0,0 l/m 0 min 0 min 0 W/m 6,4 km/h (2 Bft) 97,14 %
24.03.2022 19:42 14,1 C 12,2 C 7,8 C 51 % 1028,4 hPa 0,0 l/m 0 min 0 min 0 W/m 3,2 km/h (1 Bft) 97,87 %
24.03.2022 19:44 14,0 C 11,7 C 7,8 C 51 % 1028,4 hPa 0,0 l/m 0 min 0 min 0 W/m 3,2 km/h (1 Bft) 97,87 %
24.03.2022 19:46 13,9 C 11,7 C 7,2 C 52 % 1028,4 hPa 0,0 l/m 0 min 0 min 0 W/m 0,0 km/h (0 Bft) 95,74 %
24.03.2022 19:48 13,8 C 11,7 C 7,2 C 53 % 1028,5 hPa 0,0 l/m 0 min 0 min 0 W/m 3,2 km/h (1 Bft) 97,87 %
24.03.2022 19:50 13,8 C 11,7 C 7,2 C 52 % 1028,5 hPa 0,0 l/m 0 min 0 min 0 W/m 0,0 km/h (0 Bft) 97,87 %
24.03.2022 19:52 13,7 C 11,7 C 7,2 C 53 % 1028,5 hPa 0,0 l/m 0 min 0 min 0 W/m 0,0 km/h (0 Bft) 97,83 %
24.03.2022 19:54 13,7 C 11,7 C 6,7 C 53 % 1028,5 hPa 0,0 l/m 0 min 0 min 0 W/m 3,2 km/h (1 Bft) 95,74 %
24.03.2022 19:56 13,6 C 11,1 C 6,7 C 53 % 1028,5 hPa 0,0 l/m 0 min 0 min 0 W/m 3,2 km/h (1 Bft) 95,74 %
24.03.2022 19:58 13,6 C 11,1 C 6,7 C 54 % 1028,5 hPa 0,0 l/m 0 min 0 min 0 W/m 0,0 km/h (0 Bft) 97,87 %
24.03.2022 20:00 13,5 C 11,1 C 6,7 C 54 % 1028,5 hPa 0,0 l/m 0 min 0 min 0 W/m 0,0 km/h (0 Bft) 97,87 %
24.03.2022 20:02 13,4 C 11,1 C 6,7 C 55 % 1028,5 hPa 0,0 l/m 0 min 0 min 0 W/m 0,0 km/h (0 Bft) 97,87 %
24.03.2022 20:04 13,3 C 11,1 C 6,7 C 55 % 1028,5 hPa 0,0 l/m 0 min 0 min 0 W/m 0,0 km/h (0 Bft) 97,83 %
24.03.2022 20:06 13,3 C 11,1 C 6,7 C 55 % 1028,5 hPa 0,0 l/m 0 min 0 min 0 W/m 3,2 km/h (1 Bft) 97,87 %
24.03.2022 20:08 13,2 C 10,6 C 6,7 C 55 % 1028,5 hPa 0,0 l/m 0 min 0 min 0 W/m 3,2 km/h (1 Bft) 97,87 %
24.03.2022 20:10 13,1 C 10,6 C 6,7 C 55 % 1028,5 hPa 0,0 l/m 0 min 0 min 0 W/m 0,0 km/h (0 Bft) 97,87 %
24.03.2022 20:12 13,1 C 10,6 C 6,1 C 55 % 1028,4 hPa 0,0 l/m 0 min 0 min 0 W/m 0,0 km/h (0 Bft) 97,87 %
24.03.2022 20:14 13,0 C 10,6 C 6,1 C 55 % 1028,5 hPa 0,0 l/m 0 min 0 min 0 W/m 0,0 km/h (0 Bft) 100,00 %
24.03.2022 20:16 12,9 C 10,6 C 6,1 C 56 % 1028,5 hPa 0,0 l/m 0 min 0 min 0 W/m 0,0 km/h (0 Bft) 100,00 %
24.03.2022 20:18 12,8 C 10,6 C 6,1 C 56 % 1028,5 hPa 0,0 l/m 0 min 0 min 0 W/m 0,0 km/h (0 Bft) 100,00 %
24.03.2022 20:20 12,8 C 10,6 C 6,1 C 56 % 1028,5 hPa 0,0 l/m 0 min 0 min 0 W/m 0,0 km/h (0 Bft) 100,00 %
24.03.2022 20:22 12,7 C 10,6 C 5,6 C 56 % 1028,6 hPa 0,0 l/m 0 min 0 min 0 W/m 0,0 km/h (0 Bft) 100,00 %
24.03.2022 20:24 12,7 C 10,0 C 5,6 C 57 % 1028,5 hPa 0,0 l/m 0 min 0 min 0 W/m 0,0 km/h (0 Bft) 100,00 %
24.03.2022 20:26 12,6 C 10,0 C 5,6 C 57 % 1028,5 hPa 0,0 l/m 0 min 0 min 0 W/m 0,0 km/h (0 Bft) 100,00 %
24.03.2022 20:28 12,6 C 10,0 C 5,6 C 57 % 1028,5 hPa 0,0 l/m 0 min 0 min 0 W/m 0,0 km/h (0 Bft) 100,00 %
24.03.2022 20:30 12,5 C 10,0 C 5,6 C 57 % 1028,5 hPa 0,0 l/m 0 min 0 min 0 W/m 0,0 km/h (0 Bft) 100,00 %
24.03.2022 20:32 12,4 C 10,0 C 5,6 C 57 % 1028,5 hPa 0,0 l/m 0 min 0 min 0 W/m 3,2 km/h (1 Bft) 100,00 %
24.03.2022 20:34 12,4 C 10,0 C 5,6 C 57 % 1028,5 hPa 0,0 l/m 0 min 0 min 0 W/m 0,0 km/h (0 Bft) 100,00 %
24.03.2022 20:36 12,3 C 10,0 C 5,6 C 57 % 1028,5 hPa 0,0 l/m 0 min 0 min 0 W/m 0,0 km/h (0 Bft) 100,00 %
24.03.2022 20:38 12,2 C 10,0 C 5,6 C 57 % 1028,6 hPa 0,0 l/m 0 min 0 min 0 W/m 0,0 km/h (0 Bft) 97,83 %
24.03.2022 20:40 12,2 C 10,0 C 5,6 C 57 % 1028,5 hPa 0,0 l/m 0 min 0 min 0 W/m 0,0 km/h (0 Bft) 97,87 %
24.03.2022 20:42 12,1 C 10,0 C 5,6 C 57 % 1028,6 hPa 0,0 l/m 0 min 0 min 0 W/m 0,0 km/h (0 Bft) 95,74 %
24.03.2022 20:44 12,1 C 10,0 C 5,6 C 58 % 1028,6 hPa 0,0 l/m 0 min 0 min 0 W/m 0,0 km/h (0 Bft) 97,87 %
24.03.2022 20:46 12,0 C 9,4 C 5,6 C 58 % 1028,6 hPa 0,0 l/m 0 min 0 min 0 W/m 0,0 km/h (0 Bft) 97,87 %
24.03.2022 20:48 11,9 C 9,4 C 5,0 C 58 % 1028,6 hPa 0,0 l/m 0 min 0 min 0 W/m 0,0 km/h (0 Bft) 97,87 %
24.03.2022 20:50 11,8 C 9,4 C 5,0 C 58 % 1028,6 hPa 0,0 l/m 0 min 0 min 0 W/m 3,2 km/h (1 Bft) 93,48 %
24.03.2022 20:52 11,8 C 9,4 C 5,0 C 58 % 1028,7 hPa 0,0 l/m 0 min 0 min 0 W/m 0,0 km/h (0 Bft) 97,87 %
24.03.2022 20:54 11,7 C 9,4 C 5,0 C 58 % 1028,7 hPa 0,0 l/m 0 min 0 min 0 W/m 0,0 km/h (0 Bft) 97,87 %
24.03.2022 20:56 11,7 C 9,4 C 5,0 C 58 % 1028,7 hPa 0,0 l/m 0 min 0 min 0 W/m 0,0 km/h (0 Bft) 97,87 %
24.03.2022 20:58 11,6 C 9,4 C 5,0 C 58 % 1028,6 hPa 0,0 l/m 0 min 0 min 0 W/m 0,0 km/h (0 Bft) 97,87 %
24.03.2022 21:00 11,6 C 9,4 C 5,0 C 58 % 1028,7 hPa 0,0 l/m 0 min 0 min 0 W/m 0,0 km/h (0 Bft) 97,87 %
24.03.2022 21:02 11,5 C 9,4 C 5,0 C 58 % 1028,7 hPa 0,0 l/m 0 min 0 min 0 W/m 3,2 km/h (1 Bft) 97,83 %
24.03.2022 21:04 11,4 C 9,4 C 5,0 C 58 % 1028,7 hPa 0,0 l/m 0 min 0 min 0 W/m 0,0 km/h (0 Bft) 97,87 %
24.03.2022 21:06 11,4 C 9,4 C 5,0 C 58 % 1028,6 hPa 0,0 l/m 0 min 0 min 0 W/m 0,0 km/h (0 Bft) 100,00 %
24.03.2022 21:08 11,3 C 9,4 C 5,0 C 58 % 1028,7 hPa 0,0 l/m 0 min 0 min 0 W/m 0,0 km/h (0 Bft) 100,00 %
24.03.2022 21:10 11,3 C 9,4 C 5,0 C 58 % 1028,7 hPa 0,0 l/m 0 min 0 min 0 W/m 0,0 km/h (0 Bft) 100,00 %
24.03.2022 21:12 11,2 C 9,4 C 5,0 C 59 % 1028,7 hPa 0,0 l/m 0 min 0 min 0 W/m 0,0 km/h (0 Bft) 100,00 %
24.03.2022 21:14 11,2 C 9,4 C 5,0 C 60 % 1028,8 hPa 0,0 l/m 0 min 0 min 0 W/m 0,0 km/h (0 Bft) 97,83 %
24.03.2022 21:16 11,1 C 8,9 C 4,4 C 60 % 1028,8 hPa 0,0 l/m 0 min 0 min 0 W/m 0,0 km/h (0 Bft) 100,00 %
24.03.2022 21:18 11,1 C 8,9 C 4,4 C 60 % 1028,8 hPa 0,0 l/m 0 min 0 min 0 W/m 0,0 km/h (0 Bft) 100,00 %
24.03.2022 21:20 11,1 C 8,9 C 4,4 C 61 % 1028,8 hPa 0,0 l/m 0 min 0 min 0 W/m 0,0 km/h (0 Bft) 100,00 %
24.03.2022 21:22 11,0 C 8,9 C 4,4 C 61 % 1028,8 hPa 0,0 l/m 0 min 0 min 0 W/m 0,0 km/h (0 Bft) 100,00 %
24.03.2022 21:24 10,9 C 8,9 C 4,4 C 61 % 1028,8 hPa 0,0 l/m 0 min 0 min 0 W/m 0,0 km/h (0 Bft) 95,74 %
24.03.2022 21:26 10,9 C 8,9 C 4,4 C 61 % 1028,8 hPa 0,0 l/m 0 min 0 min 0 W/m 0,0 km/h (0 Bft) 97,83 %
24.03.2022 21:28 10,8 C 8,9 C 4,4 C 62 % 1028,8 hPa 0,0 l/m 0 min 0 min 0 W/m 0,0 km/h (0 Bft) 97,87 %
24.03.2022 21:30 10,8 C 8,9 C 4,4 C 62 % 1028,8 hPa 0,0 l/m 0 min 0 min 0 W/m 0,0 km/h (0 Bft) 97,87 %
24.03.2022 21:32 10,7 C 8,9 C 4,4 C 61 % 1028,8 hPa 0,0 l/m 0 min 0 min 0 W/m 0,0 km/h (0 Bft) 95,74 %
24.03.2022 21:34 10,7 C 8,3 C 4,4 C 62 % 1028,9 hPa 0,0 l/m 0 min 0 min 0 W/m 0,0 km/h (0 Bft) 97,87 %
24.03.2022 21:36 10,6 C 8,3 C 4,4 C 62 % 1028,9 hPa 0,0 l/m 0 min 0 min 0 W/m 0,0 km/h (0 Bft) 97,83 %
24.03.2022 21:38 10,6 C 8,3 C 4,4 C 62 % 1028,9 hPa 0,0 l/m 0 min 0 min 0 W/m 0,0 km/h (0 Bft) 95,74 %
24.03.2022 21:40 10,5 C 8,3 C 4,4 C 62 % 1028,9 hPa 0,0 l/m 0 min 0 min 0 W/m 0,0 km/h (0 Bft) 97,87 %
24.03.2022 21:42 10,4 C 8,3 C 4,4 C 62 % 1028,9 hPa 0,0 l/m 0 min 0 min 0 W/m 0,0 km/h (0 Bft) 97,87 %
24.03.2022 21:44 10,4 C 8,3 C 4,4 C 63 % 1028,9 hPa 0,0 l/m 0 min 0 min 0 W/m 0,0 km/h (0 Bft) 97,87 %
24.03.2022 21:46 10,3 C 8,3 C 4,4 C 62 % 1028,9 hPa 0,0 l/m 0 min 0 min 0 W/m 0,0 km/h (0 Bft) 97,87 %
24.03.2022 21:48 10,3 C 8,3 C 4,4 C 63 % 1028,9 hPa 0,0 l/m 0 min 0 min 0 W/m 0,0 km/h (0 Bft) 97,87 %
24.03.2022 21:50 10,2 C 8,3 C 3,9 C 62 % 1028,9 hPa 0,0 l/m 0 min 0 min 0 W/m 0,0 km/h (0 Bft) 97,83 %
24.03.2022 21:52 10,2 C 8,3 C 3,9 C 62 % 1028,9 hPa 0,0 l/m 0 min 0 min 0 W/m 0,0 km/h (0 Bft) 100,00 %
24.03.2022 21:54 10,1 C 8,3 C 3,9 C 63 % 1028,9 hPa 0,0 l/m 0 min 0 min 0 W/m 0,0 km/h (0 Bft) 100,00 %
24.03.2022 21:56 10,1 C 8,3 C 3,9 C 63 % 1028,9 hPa 0,0 l/m 0 min 0 min 0 W/m 0,0 km/h (0 Bft) 100,00 %
24.03.2022 21:58 10,0 C 7,8 C 3,9 C 64 % 1028,9 hPa 0,0 l/m 0 min 0 min 0 W/m 0,0 km/h (0 Bft) 100,00 %
24.03.2022 22:00 9,9 C 7,8 C 3,9 C 64 % 1028,9 hPa 0,0 l/m 0 min 0 min 0 W/m 0,0 km/h (0 Bft) 97,83 %
24.03.2022 22:02 9,9 C 7,8 C 3,9 C 64 % 1028,9 hPa 0,0 l/m 0 min 0 min 0 W/m 0,0 km/h (0 Bft) 95,74 %
24.03.2022 22:04 9,8 C 7,8 C 3,9 C 64 % 1028,9 hPa 0,0 l/m 0 min 0 min 0 W/m 0,0 km/h (0 Bft) 100,00 %
24.03.2022 22:06 9,8 C 7,8 C 3,9 C 64 % 1028,9 hPa 0,0 l/m 0 min 0 min 0 W/m 0,0 km/h (0 Bft) 95,74 %
24.03.2022 22:08 9,7 C 7,8 C 3,9 C 65 % 1028,9 hPa 0,0 l/m 0 min 0 min 0 W/m 0,0 km/h (0 Bft) 97,87 %
24.03.2022 22:10 9,7 C 7,8 C 3,3 C 65 % 1029,0 hPa 0,0 l/m 0 min 0 min 0 W/m 0,0 km/h (0 Bft) 97,87 %
24.03.2022 22:12 9,6 C 7,8 C 3,3 C 64 % 1029,0 hPa 0,0 l/m 0 min 0 min 0 W/m 0,0 km/h (0 Bft) 95,65 %
24.03.2022 22:14 9,6 C 7,8 C 3,3 C 65 % 1028,9 hPa 0,0 l/m 0 min 0 min 0 W/m 0,0 km/h (0 Bft) 95,74 %
24.03.2022 22:16 9,6 C 7,8 C 3,3 C 65 % 1028,9 hPa 0,0 l/m 0 min 0 min 0 W/m 0,0 km/h (0 Bft) 93,62 %
24.03.2022 22:18 9,5 C 7,8 C 3,3 C 65 % 1028,9 hPa 0,0 l/m 0 min 0 min 0 W/m 0,0 km/h (0 Bft) 95,74 %
24.03.2022 22:20 9,4 C 7,8 C 3,3 C 65 % 1028,9 hPa 0,0 l/m 0 min 0 min 0 W/m 0,0 km/h (0 Bft) 95,74 %
24.03.2022 22:22 9,4 C 7,8 C 3,3 C 65 % 1028,9 hPa 0,0 l/m 0 min 0 min 0 W/m 0,0 km/h (0 Bft) 93,62 %
24.03.2022 22:24 9,3 C 7,2 C 3,3 C 65 % 1028,9 hPa 0,0 l/m 0 min 0 min 0 W/m 0,0 km/h (0 Bft) 95,65 %
24.03.2022 22:26 9,3 C 7,2 C 3,3 C 65 % 1028,9 hPa 0,0 l/m 0 min 0 min 0 W/m 0,0 km/h (0 Bft) 95,74 %
24.03.2022 22:28 9,2 C 7,2 C 3,3 C 65 % 1029,0 hPa 0,0 l/m 0 min 0 min 0 W/m 0,0 km/h (0 Bft) 95,74 %
24.03.2022 22:30 9,2 C 7,2 C 3,3 C 65 % 1029,0 hPa 0,0 l/m 0 min 0 min 0 W/m 0,0 km/h (0 Bft) 95,74 %
24.03.2022 22:32 9,2 C 7,2 C 3,3 C 66 % 1029,0 hPa 0,0 l/m 0 min 0 min 0 W/m 0,0 km/h (0 Bft) 95,74 %
24.03.2022 22:34 9,1 C 7,2 C 3,3 C 66 % 1029,0 hPa 0,0 l/m 0 min 0 min 0 W/m 0,0 km/h (0 Bft) 95,74 %
24.03.2022 22:36 9,1 C 7,2 C 3,3 C 66 % 1028,9 hPa 0,0 l/m 0 min 0 min 0 W/m 3,2 km/h (1 Bft) 93,48 %
24.03.2022 22:38 9,0 C 7,2 C 3,3 C 66 % 1029,1 hPa 0,0 l/m 0 min 0 min 0 W/m 3,2 km/h (1 Bft) 95,74 %
24.03.2022 22:40 8,9 C 7,2 C 3,3 C 66 % 1029,1 hPa 0,0 l/m 0 min 0 min 0 W/m 6,4 km/h (2 Bft) 97,87 %
24.03.2022 22:42 8,9 C 7,2 C 3,3 C 66 % 1029,1 hPa 0,0 l/m 0 min 0 min 0 W/m 3,2 km/h (1 Bft) 97,87 %
24.03.2022 22:44 8,8 C 7,8 C 3,9 C 66 % 1029,1 hPa 0,0 l/m 0 min 0 min 0 W/m 3,2 km/h (1 Bft) 97,87 %
24.03.2022 22:46 8,8 C 7,8 C 3,9 C 66 % 1029,1 hPa 0,0 l/m 0 min 0 min 0 W/m 3,2 km/h (1 Bft) 97,87 %
24.03.2022 22:48 8,7 C 7,2 C 3,9 C 66 % 1029,1 hPa 0,0 l/m 0 min 0 min 0 W/m 3,2 km/h (1 Bft) 100,00 %
24.03.2022 22:50 8,7 C 7,2 C 3,9 C 66 % 1029,1 hPa 0,0 l/m 0 min 0 min 0 W/m 3,2 km/h (1 Bft) 97,87 %
24.03.2022 22:52 8,7 C 7,8 C 3,9 C 66 % 1029,1 hPa 0,0 l/m 0 min 0 min 0 W/m 0,0 km/h (0 Bft) 97,87 %
24.03.2022 22:54 8,7 C 7,2 C 3,9 C 66 % 1029,1 hPa 0,0 l/m 0 min 0 min 0 W/m 3,2 km/h (1 Bft) 93,62 %
24.03.2022 22:56 8,6 C 7,2 C 3,9 C 66 % 1029,1 hPa 0,0 l/m 0 min 0 min 0 W/m 3,2 km/h (1 Bft) 97,87 %
24.03.2022 22:58 8,6 C 7,2 C 3,9 C 66 % 1029,1 hPa 0,0 l/m 0 min 0 min 0 W/m 0,0 km/h (0 Bft) 97,87 %
24.03.2022 23:00 8,6 C 7,2 C 3,9 C 66 % 1029,1 hPa 0,0 l/m 0 min 0 min 0 W/m 0,0 km/h (0 Bft) 97,83 %
24.03.2022 23:02 8,6 C 7,2 C 3,3 C 66 % 1029,0 hPa 0,0 l/m 0 min 0 min 0 W/m 0,0 km/h (0 Bft) 95,74 %
24.03.2022 23:04 8,6 C 7,2 C 3,3 C 66 % 1029,0 hPa 0,0 l/m 0 min 0 min 0 W/m 0,0 km/h (0 Bft) 95,74 %
24.03.2022 23:06 8,5 C 7,2 C 3,3 C 66 % 1029,1 hPa 0,0 l/m 0 min 0 min 0 W/m 0,0 km/h (0 Bft) 95,74 %
24.03.2022 23:08 8,5 C 7,2 C 3,3 C 66 % 1029,1 hPa 0,0 l/m 0 min 0 min 0 W/m 0,0 km/h (0 Bft) 93,62 %
24.03.2022 23:10 8,4 C 7,2 C 3,3 C 66 % 1029,1 hPa 0,0 l/m 0 min 0 min 0 W/m 0,0 km/h (0 Bft) 95,65 %
24.03.2022 23:12 8,4 C 7,2 C 3,3 C 66 % 1029,1 hPa 0,0 l/m 0 min 0 min 0 W/m 0,0 km/h (0 Bft) 93,62 %
24.03.2022 23:14 8,4 C 7,2 C 3,3 C 66 % 1029,1 hPa 0,0 l/m 0 min 0 min 0 W/m 0,0 km/h (0 Bft) 95,74 %
24.03.2022 23:16 8,4 C 7,2 C 3,3 C 66 % 1029,1 hPa 0,0 l/m 0 min 0 min 0 W/m 0,0 km/h (0 Bft) 95,74 %
24.03.2022 23:18 8,3 C 6,7 C 3,3 C 66 % 1029,1 hPa 0,0 l/m 0 min 0 min 0 W/m 0,0 km/h (0 Bft) 93,62 %
24.03.2022 23:20 8,3 C 6,7 C 2,8 C 66 % 1029,2 hPa 0,0 l/m 0 min 0 min 0 W/m 0,0 km/h (0 Bft) 93,62 %
24.03.2022 23:22 8,3 C 6,7 C 3,3 C 66 % 1029,2 hPa 0,0 l/m 0 min 0 min 0 W/m 0,0 km/h (0 Bft) 97,83 %
24.03.2022 23:24 8,3 C 6,7 C 2,8 C 66 % 1029,2 hPa 0,0 l/m 0 min 0 min 0 W/m 0,0 km/h (0 Bft) 97,87 %
24.03.2022 23:26 8,2 C 6,7 C 2,8 C 65 % 1029,2 hPa 0,0 l/m 0 min 0 min 0 W/m 0,0 km/h (0 Bft) 97,87 %
24.03.2022 23:28 8,2 C 6,7 C 2,8 C 66 % 1029,2 hPa 0,0 l/m 0 min 0 min 0 W/m 0,0 km/h (0 Bft) 97,87 %
24.03.2022 23:30 8,2 C 6,7 C 2,8 C 66 % 1029,1 hPa 0,0 l/m 0 min 0 min 0 W/m 0,0 km/h (0 Bft) 100,00 %
24.03.2022 23:32 8,2 C 6,7 C 2,8 C 66 % 1029,2 hPa 0,0 l/m 0 min 0 min 0 W/m 0,0 km/h (0 Bft) 100,00 %
24.03.2022 23:34 8,1 C 6,7 C 2,8 C 66 % 1029,2 hPa 0,0 l/m 0 min 0 min 0 W/m 0,0 km/h (0 Bft) 100,00 %
24.03.2022 23:36 8,1 C 6,7 C 2,8 C 67 % 1029,2 hPa 0,0 l/m 0 min 0 min 0 W/m 0,0 km/h (0 Bft) 100,00 %
24.03.2022 23:38 8,1 C 6,7 C 2,8 C 67 % 1029,3 hPa 0,0 l/m 0 min 0 min 0 W/m 0,0 km/h (0 Bft) 97,87 %
24.03.2022 23:40 8,1 C 6,7 C 2,8 C 67 % 1029,3 hPa 0,0 l/m 0 min 0 min 0 W/m 0,0 km/h (0 Bft) 97,87 %
24.03.2022 23:42 8,0 C 6,7 C 2,8 C 67 % 1029,3 hPa 0,0 l/m 0 min 0 min 0 W/m 0,0 km/h (0 Bft) 100,00 %
24.03.2022 23:44 7,9 C 6,7 C 2,8 C 67 % 1029,2 hPa 0,0 l/m 0 min 0 min 0 W/m 0,0 km/h (0 Bft) 97,87 %
24.03.2022 23:46 7,9 C 6,7 C 2,8 C 67 % 1029,2 hPa 0,0 l/m 0 min 0 min 0 W/m 0,0 km/h (0 Bft) 91,30 %
24.03.2022 23:48 7,9 C 6,7 C 2,8 C 67 % 1029,3 hPa 0,0 l/m 0 min 0 min 0 W/m 0,0 km/h (0 Bft) 97,87 %
24.03.2022 23:50 7,9 C 6,7 C 2,8 C 67 % 1029,2 hPa 0,0 l/m 0 min 0 min 0 W/m 0,0 km/h (0 Bft) 97,87 %
24.03.2022 23:52 7,8 C 6,7 C 2,8 C 67 % 1029,3 hPa 0,0 l/m 0 min 0 min 0 W/m 0,0 km/h (0 Bft) 97,87 %
24.03.2022 23:54 7,8 C 6,7 C 2,8 C 67 % 1029,2 hPa 0,0 l/m 0 min 0 min 0 W/m 0,0 km/h (0 Bft) 97,87 %
24.03.2022 23:56 7,8 C 6,7 C 2,8 C 67 % 1029,2 hPa 0,0 l/m 0 min 0 min 0 W/m 0,0 km/h (0 Bft) 97,87 %
24.03.2022 23:58 7,8 C 6,7 C 2,8 C 67 % 1029,3 hPa 0,0 l/m 0 min 0 min 0 W/m 3,2 km/h (1 Bft) 97,83 %
_ Min-Zeit 06:56 05:46 06:26 15:46 17:16 - - - - 00:00 07:50
Minimum _ 2,3 C 1,7 C -1,7 C 35 % 1027,7 hPa - - - - 0,0 km/h (0 Bft) 59,57 %
_ Max-Zeit 16:22 13:24 11:34 08:16 10:10 00:00 12:08 00:00 12:38 13:26 01:32
Maximum _ 19,8 C 27,8 C 21,7 C 91 % 1030,1 hPa 0,0 l/m 4 min 0 min 692 W/m 22,5 km/h
N (4 Bft)
100,00 %
Durchschnitt _ 10,9 C 12,2 C 6,8 C 62 % 1029,1 hPa #0,0 l/m #9:20 h #0 min. 371 W/m 3,4 km/h (1 Bft) 97,49 %
© 2022 W. Hausmann